Portsmouth, Virginia - KPWR: Monthly Data Portsmouth Weather Records Service - Portsmouth, Virginia



LOCAL CLIMATOLOGICAL DATA: This Month's Data
[updated each morning between 7AM and 9AM]
Station: Portsmouth, Virginia - KPWR Latitude: 36° 48' 04" N Longitude: 76° 19' 37" W Elevation (ground): 13 ft. Time Zone: Eastern

BE SURE TO RELOAD/REFRESH THIS SCREEN FOR DAILY UPDATES BY RIGHT-CLICKING THE BACKGROUND The data in this frame and listed below are final adjusted site data for the time period.


-----------------------------------------------------------------------------------------------------------------------------------------------------------------------------------
MONDAY  		Temp	Hi	Low	Out	Dew	Wind	Wind	Wind	Hi	Hi	Wind	Heat	THW			Rain	Heat	Cool	In 	In	In 	In 	Wind	Wind	ISS 	Arc.
Date		Time	Out	Temp	Temp	Hum	Pt.	Speed	Dir	Run	Speed	Dir	Chill	Index	Index	Bar  	Rain	Rate	D-D 	D-D 	Temp	Hum	Dew	Heat	Samp	Tx 	Recept	Int.
07/01/19	1:00 a	74.8	76.1	74.8	89	71.3	0.0	NW	0.00	5.0	NW	74.8	77.9	77.9	29.856	0.00	0.00	0.000	0.408	83.6	33	51.5	82.3	1403	1	100.0	60
07/01/19	2:00 a	73.6	74.8	73.6	92	71.1	0.0	NW	0.00	5.0	NW	73.6	76.2	76.2	29.865	0.00	0.00	0.000	0.358	83.8	34	52.4	82.8	1405	1	100.0	60
07/01/19	3:00 a	73.3	73.6	73.3	95	71.8	4.0	WNW	4.00	7.0	WNW	73.3	76.2	76.2	29.857	0.00	0.00	0.000	0.346	83.7	34	52.3	82.7	1405	1	100.0	60
07/01/19	4:00 a	72.7	73.3	72.7	95	71.2	4.0	WNW	4.00	6.0	WNW	72.7	75.5	75.5	29.865	0.00	0.00	0.000	0.321	83.5	35	53.0	82.6	1405	1	100.0	60
07/01/19	5:00 a	73.7	73.7	72.7	90	70.6	5.0	NW	5.00	11.0	NNW	73.7	76.1	76.1	29.866	0.00	0.00	0.000	0.362	83.3	35	52.8	82.3	1405	1	100.0	60
07/01/19	6:00 a	76.0	76.0	73.7	83	70.5	7.0	NE	7.00	21.0	NE	76.0	79.1	79.1	29.887	0.00	0.00	0.000	0.458	83.4	36	53.6	82.6	1405	1	100.0	60
07/01/19	7:00 a	77.3	77.3	76.0	73	68.0	11.0	NE	11.00	19.0	ENE	75.0	79.6	77.3	29.909	0.00	0.00	0.000	0.513	83.0	45	59.5	83.5	1405	1	100.0	60
07/01/19	8:00 a	79.0	79.0	77.3	70	68.4	11.0	NE	11.00	20.0	ENE	77.0	81.3	79.3	29.930	0.00	0.00	0.000	0.583	84.0	45	60.4	85.1	1405	1	100.0	60
07/01/19	9:00 a	80.3	80.3	79.0	63	66.6	10.0	NE	10.00	16.0	NE	78.7	82.2	80.6	29.945	0.00	0.00	0.000	0.638	84.6	47	62.1	85.9	1405	1	100.0	60
07/01/19	10:00 a	81.5	81.5	80.3	53	62.7	11.0	NE	11.00	18.0	NE	79.8	82.4	80.7	29.949	0.00	0.00	0.000	0.688	85.2	40	58.2	85.3	1405	1	100.0	60
07/01/19	11:00 a	82.8	82.8	81.5	50	62.3	11.0	NE	11.00	18.0	E	81.3	83.9	82.4	29.957	0.00	0.00	0.000	0.742	86.4	40	59.2	86.7	1405	1	100.0	60
07/01/19	12:00 p	83.2	83.5	82.8	56	65.9	10.0	NE	10.00	18.0	ENE	82.0	85.4	84.2	29.959	0.00	0.00	0.000	0.758	86.6	33	54.1	85.4	1405	1	100.0	60
07/01/19	1:00 p	83.9	83.9	83.2	52	64.4	10.0	ENE	10.00	18.0	N	82.8	86.0	84.9	29.959	0.00	0.00	0.000	0.788	87.6	38	58.9	87.3	1405	1	100.0	60
07/01/19	2:00 p	84.0	84.0	83.6	55	66.1	7.0	ENE	7.00	17.0	NNW	84.0	86.6	86.6	29.951	0.00	0.00	0.000	0.792	87.7	31	53.3	85.8	1405	1	100.0	60
07/01/19	3:00 p	84.6	84.6	84.0	54	66.1	7.0	ENE	7.00	18.0	NNW	84.6	87.2	87.2	29.951	0.00	0.00	0.000	0.817	89.8	37	60.1	90.1	1405	1	100.0	60
07/01/19	4:00 p	85.3	85.3	84.6	51	65.1	7.0	ENE	7.00	16.0	NE	85.3	87.5	87.5	29.936	0.00	0.00	0.000	0.846	89.4	30	53.9	87.8	1404	1	100.0	60
07/01/19	5:00 p	85.3	85.3	85.3	47	62.8	7.0	NNW	7.00	17.0	ENE	85.3	86.7	86.7	29.930	0.00	0.00	0.000	0.846	91.9	36	61.1	92.8	1406	1	100.0	60
07/01/19	6:00 p	85.3	85.3	85.3	48	63.4	7.0	NW	7.00	16.0	WNW	85.3	86.9	86.9	29.926	0.00	0.00	0.000	0.846	92.5	31	57.5	92.3	1404	1	100.0	60
07/01/19	7:00 p	84.7	85.3	84.7	52	65.1	7.0	NE	7.00	14.0	NW	84.7	86.9	86.9	29.932	0.00	0.00	0.000	0.821	91.8	33	58.6	91.9	1405	1	100.0	60
07/01/19	8:00 p	84.0	84.7	84.0	54	65.6	5.0	NE	5.00	13.0	NW	84.0	86.4	86.4	29.931	0.00	0.00	0.000	0.792	89.2	31	54.6	87.6	1405	1	100.0	60
07/01/19	9:00 p	81.5	84.0	81.5	61	66.8	4.0	SSE	4.00	10.0	SSE	81.5	83.6	83.6	29.944	0.00	0.00	0.000	0.688	88.5	32	54.9	86.8	1405	1	100.0	60
07/01/19	10:00 p	77.9	81.5	77.9	68	66.5	5.0	SSE	5.00	12.0	ESE	77.9	79.7	79.7	29.959	0.00	0.00	0.000	0.538	88.8	33	56.0	87.5	1405	1	100.0	60
07/01/19	11:00 p	75.4	77.9	75.4	72	65.7	4.0	SSE	4.00	10.0	S	75.4	77.3	77.3	29.964	0.00	0.00	0.000	0.433	87.8	32	54.3	86.0	1405	1	100.0	60
07/02/19	12:00 a	73.4	75.4	73.4	77	65.7	4.0	SSE	4.00	10.0	SSE	73.4	75.1	75.1	29.956	0.00	0.00	0.000	0.350	86.0	33	53.5	84.9	1405	1	100.0	60
TUESDAY  		Temp	Hi	Low	Out	Dew	Wind	Wind	Wind	Hi	Hi	Wind	Heat	THW			Rain	Heat	Cool	In 	In	In 	In 	Wind	Wind	ISS 	Arc.
Date		Time	Out	Temp	Temp	Hum	Pt.	Speed	Dir	Run	Speed	Dir	Chill	Index	Index	Bar  	Rain	Rate	D-D 	D-D 	Temp	Hum	Dew	Heat	Samp	Tx 	Recept	Int.
07/02/19	1:00 a	71.7	73.4	71.7	80	65.2	4.0	SSE	4.00	11.0	SSE	71.7	73.1	73.1	29.950	0.00	0.00	0.000	0.279	85.9	34	54.3	85.0	1404	1	100.0	60
07/02/19	2:00 a	70.2	71.7	70.2	84	65.1	0.0	SSE	0.00	7.0	SSE	70.2	71.7	71.7	29.959	0.00	0.00	0.000	0.217	85.5	35	54.7	84.8	1405	1	100.0	60
07/02/19	3:00 a	68.8	70.2	68.8	86	64.4	0.0	SSE	0.00	5.0	SSE	68.8	70.6	70.6	29.949	0.00	0.00	0.000	0.158	83.0	34	51.7	81.6	1405	1	100.0	60
07/02/19	4:00 a	67.5	68.8	67.5	88	63.8	0.0	SSE	0.00	7.0	SSE	67.5	69.0	69.0	29.948	0.00	0.00	0.000	0.104	83.2	34	51.9	81.9	1404	1	100.0	60
07/02/19	5:00 a	66.8	67.5	66.8	91	64.1	4.0	SSW	4.00	7.0	SSW	66.8	68.3	68.3	29.945	0.00	0.00	0.000	0.075	82.8	35	52.3	81.6	1405	1	100.0	60
07/02/19	6:00 a	66.2	66.8	66.2	92	63.8	4.0	SSW	4.00	6.0	SSW	66.2	67.6	67.6	29.950	0.00	0.00	0.000	0.050	82.5	36	52.9	81.4	1406	1	100.0	60
07/02/19	7:00 a	68.5	68.5	66.1	96	67.3	4.0	SSW	4.00	10.0	SW	68.5	70.7	70.7	29.952	0.00	0.00	0.000	0.146	82.3	41	56.2	81.9	1404	1	100.0	60
07/02/19	8:00 a	75.2	75.2	68.5	77	67.5	6.0	SW	6.00	13.0	SW	75.2	77.5	77.5	29.954	0.00	0.00	0.000	0.425	80.9	48	59.4	80.9	1405	1	100.0	60
07/02/19	9:00 a	79.8	79.8	75.2	75	71.2	5.0	SW	5.00	14.0	WSW	79.8	83.3	83.3	29.953	0.00	0.00	0.000	0.617	83.5	45	59.9	84.3	1405	1	100.0	60
07/02/19	10:00 a	85.0	85.0	79.8	65	71.9	6.0	SW	6.00	16.0	SW	85.0	91.1	91.1	29.949	0.00	0.00	0.000	0.833	82.9	38	54.7	82.2	1405	1	100.0	60
07/02/19	11:00 a	87.1	87.1	85.0	63	73.0	6.0	SW	6.00	15.0	WSW	87.1	94.9	94.9	29.942	0.00	0.00	0.000	0.921	84.0	36	54.2	83.5	1405	1	100.0	60
07/02/19	12:00 p	89.7	89.7	87.1	57	72.4	6.0	SSW	6.00	18.0	SSE	89.7	97.7	97.7	29.933	0.00	0.00	0.000	1.029	86.7	38	58.1	86.6	1405	1	100.0	60
07/02/19	1:00 p	90.8	90.8	89.7	52	70.7	6.0	SW	6.00	16.0	SSE	90.8	97.7	97.7	29.921	0.00	0.00	0.000	1.075	86.9	35	56.0	86.1	1405	1	100.0	60
07/02/19	2:00 p	92.2	92.2	90.8	51	71.5	7.0	SW	7.00	19.0	NW	92.2	100.1	100.1	29.892	0.00	0.00	0.000	1.133	89.8	38	60.8	90.4	1405	1	100.0	60
07/02/19	3:00 p	93.6	93.6	92.2	49	71.6	7.0	SW	7.00	19.0	SW	93.6	102.0	102.0	29.876	0.00	0.00	0.000	1.192	89.2	34	57.2	88.4	1405	1	100.0	60
07/02/19	4:00 p	94.4	94.4	93.6	46	70.4	6.0	SW	6.00	17.0	SSW	94.4	102.2	102.2	29.858	0.00	0.00	0.000	1.225	92.1	36	61.3	93.1	1405	1	100.0	60
07/02/19	5:00 p	94.4	94.5	94.4	46	70.4	7.0	SW	7.00	18.0	SW	94.4	102.2	102.2	29.845	0.00	0.00	0.000	1.225	91.3	33	58.2	91.2	1405	1	100.0	60
07/02/19	6:00 p	94.5	94.5	94.5	44	69.2	6.0	SW	6.00	16.0	SSW	94.5	101.3	101.3	29.830	0.00	0.00	0.000	1.229	92.9	34	60.4	93.6	1404	1	100.0	60
07/02/19	7:00 p	94.5	94.5	94.5	45	69.9	6.0	W	6.00	14.0	WNW	94.5	101.9	101.9	29.828	0.00	0.00	0.000	1.229	91.6	31	56.7	91.1	1405	1	100.0	60
07/02/19	8:00 p	93.2	94.5	93.2	48	70.6	5.0	W	5.00	12.0	WSW	93.2	100.7	100.7	29.831	0.00	0.00	0.000	1.175	91.5	33	58.3	91.5	1406	1	100.0	60
07/02/19	9:00 p	89.6	93.2	89.6	54	70.8	4.0	WNW	4.00	6.0	W	89.6	96.2	96.2	29.831	0.00	0.00	0.000	1.025	90.2	30	54.6	89.2	1404	1	100.0	60
07/02/19	10:00 p	85.9	89.6	85.9	62	71.4	4.0	WNW	4.00	5.0	WNW	85.9	92.0	92.0	29.845	0.00	0.00	0.000	0.871	89.8	32	56.0	89.0	1405	1	100.0	60
07/02/19	11:00 p	83.0	85.9	83.0	69	71.8	4.0	WSW	4.00	11.0	S	83.0	88.1	88.1	29.853	0.00	0.00	0.000	0.750	87.8	30	52.5	85.6	1405	1	100.0	60
07/03/19	12:00 a	80.7	83.0	80.7	77	72.8	5.0	S	5.00	11.0	SSE	80.7	85.3	85.3	29.863	0.00	0.00	0.000	0.654	86.0	31	51.8	84.5	1406	1	100.0	60
WEDNESDAY  		Temp	Hi	Low	Out	Dew	Wind	Wind	Wind	Hi	Hi	Wind	Heat	THW			Rain	Heat	Cool	In 	In	In 	In 	Wind	Wind	ISS 	Arc.
Date		Time	Out	Temp	Temp	Hum	Pt.	Speed	Dir	Run	Speed	Dir	Chill	Index	Index	Bar  	Rain	Rate	D-D 	D-D 	Temp	Hum	Dew	Heat	Samp	Tx 	Recept	Int.
07/03/19	1:00 a	79.6	80.7	79.6	80	72.9	4.0	S	4.00	10.0	SSE	79.6	83.8	83.8	29.861	0.00	0.00	0.000	0.608	87.0	33	54.4	85.8	1403	1	100.0	60
07/03/19	2:00 a	78.5	79.6	78.5	83	72.9	5.0	SSW	5.00	13.0	WSW	78.5	82.6	82.6	29.853	0.00	0.00	0.000	0.563	87.2	34	55.4	86.1	1405	1	100.0	60
07/03/19	3:00 a	77.6	78.5	77.6	85	72.7	5.0	SW	5.00	13.0	WSW	77.6	81.5	81.5	29.842	0.00	0.00	0.000	0.525	84.9	33	52.6	83.7	1405	1	100.0	60
07/03/19	4:00 a	76.6	77.6	76.6	87	72.4	5.0	SW	5.00	11.0	SW	76.6	80.2	80.2	29.836	0.00	0.00	0.000	0.483	85.7	34	54.1	84.8	1405	1	100.0	60
07/03/19	5:00 a	75.7	76.6	75.7	89	72.2	4.0	SW	4.00	7.0	SW	75.7	79.1	79.1	29.831	0.00	0.00	0.000	0.446	85.7	34	54.1	84.8	1405	1	100.0	60
07/03/19	6:00 a	75.0	75.7	75.0	90	71.9	4.0	SW	4.00	7.0	SSW	75.0	78.4	78.4	29.844	0.00	0.00	0.000	0.417	83.7	34	52.3	82.7	1405	1	100.0	60
07/03/19	7:00 a	76.1	76.1	74.9	91	73.3	5.0	SSW	5.00	10.0	S	76.1	79.7	79.7	29.851	0.00	0.00	0.000	0.462	84.8	34	53.3	83.8	1405	1	100.0	60
07/03/19	8:00 a	81.1	81.1	76.1	84	75.8	4.0	SW	4.00	11.0	SW	81.1	87.8	87.8	29.864	0.00	0.00	0.000	0.671	83.8	33	51.6	82.6	1405	1	100.0	60
07/03/19	9:00 a	84.5	84.5	81.1	78	76.9	5.0	SW	5.00	12.0	WNW	84.5	94.7	94.7	29.876	0.00	0.00	0.000	0.813	85.1	34	53.6	84.1	1404	1	100.0	60
07/03/19	10:00 a	87.4	87.4	84.5	72	77.3	5.0	WSW	5.00	10.0	WNW	87.4	99.0	99.0	29.880	0.00	0.00	0.000	0.933	85.9	33	53.5	84.8	1405	1	100.0	60
07/03/19	11:00 a	90.4	90.4	87.4	63	76.1	6.0	NW	6.00	12.0	W	90.4	102.7	102.7	29.883	0.00	0.00	0.000	1.058	87.3	35	56.3	86.4	1405	1	100.0	60
07/03/19	12:00 p	92.5	92.5	90.4	60	76.6	6.0	NW	6.00	15.0	E	92.5	106.3	106.3	29.888	0.00	0.00	0.000	1.146	87.6	33	54.9	86.1	1405	1	100.0	60
07/03/19	1:00 p	93.6	93.6	92.4	59	77.1	6.0	NW	6.00	16.0	WNW	93.6	108.8	108.8	29.883	0.00	0.00	0.000	1.192	90.4	37	60.6	91.0	1405	1	100.0	60
07/03/19	2:00 p	93.5	93.8	93.5	57	76.0	7.0	ENE	7.00	17.0	NW	93.5	107.2	107.2	29.870	0.00	0.00	0.000	1.188	89.3	34	57.3	88.5	1405	1	100.0	60
07/03/19	3:00 p	92.9	93.5	92.8	58	75.9	10.0	ENE	10.00	18.0	WNW	92.9	106.2	106.2	29.850	0.00	0.00	0.000	1.163	92.0	37	62.0	93.4	1405	1	100.0	60
07/03/19	4:00 p	94.7	94.7	92.9	53	74.9	7.0	NW	7.00	16.0	NW	94.7	107.5	107.5	29.845	0.00	0.00	0.000	1.237	91.5	33	58.3	91.5	1405	1	100.0	60
07/03/19	5:00 p	95.0	95.0	94.7	49	72.8	6.0	WNW	6.00	15.0	NNW	95.0	105.1	105.1	29.844	0.00	0.00	0.000	1.250	91.3	32	57.3	91.0	1405	1	100.0	60
07/03/19	6:00 p	95.0	95.0	95.0	48	72.2	6.0	NW	6.00	14.0	NW	95.0	104.6	104.6	29.833	0.00	0.00	0.000	1.250	94.0	32	59.7	94.6	1405	1	100.0	60
07/03/19	7:00 p	95.0	95.0	95.0	56	76.8	7.0	S	7.00	22.0	SSE	95.0	110.8	110.8	29.849	0.00	0.00	0.000	1.250	92.0	32	57.9	91.9	1405	1	100.0	60
07/03/19	8:00 p	85.6	95.0	85.6	73	75.9	7.0	SSW	7.00	24.0	SSE	85.6	95.4	95.4	29.882	0.02	0.12	0.000	0.858	92.2	32	58.1	92.1	1405	1	100.0	60
07/03/19	9:00 p	80.0	85.6	80.0	85	75.1	4.0	SSW	4.00	13.0	S	80.0	85.6	85.6	29.899	0.00	0.00	0.000	0.625	88.2	31	53.7	86.2	1404	1	100.0	60
07/03/19	10:00 p	79.1	80.0	79.0	87	74.9	4.0	S	4.00	11.0	SW	79.1	84.3	84.3	29.918	0.00	0.00	0.000	0.587	89.6	32	55.8	88.6	1405	1	100.0	60
07/03/19	11:00 p	78.6	79.1	78.6	86	74.1	0.0	ENE	0.00	6.0	SSW	78.6	83.2	83.2	29.917	0.00	0.00	0.000	0.567	87.4	32	53.9	85.8	1405	1	100.0	60
07/04/19	12:00 a	77.8	78.6	77.8	86	73.3	4.0	SSW	4.00	7.0	SSW	77.8	81.9	81.9	29.921	0.00	0.00	0.000	0.533	88.2	31	53.7	86.2	1405	1	100.0	60
THURSDAY  		Temp	Hi	Low	Out	Dew	Wind	Wind	Wind	Hi	Hi	Wind	Heat	THW			Rain	Heat	Cool	In 	In	In 	In 	Wind	Wind	ISS 	Arc.
Date		Time	Out	Temp	Temp	Hum	Pt.	Speed	Dir	Run	Speed	Dir	Chill	Index	Index	Bar  	Rain	Rate	D-D 	D-D 	Temp	Hum	Dew	Heat	Samp	Tx 	Recept	Int.
07/04/19	1:00 a	77.2	77.9	77.2	87	73.0	4.0	SSW	4.00	7.0	SSE	77.2	81.1	81.1	29.931	0.00	0.00	0.000	0.508	86.2	32	52.9	84.9	1404	1	100.0	60
07/04/19	2:00 a	76.3	77.2	76.3	89	72.8	5.0	SW	5.00	11.0	W	76.3	79.9	79.9	29.942	0.00	0.00	0.000	0.471	86.9	33	54.3	85.7	1405	1	100.0	60
07/04/19	3:00 a	75.5	76.3	75.5	90	72.4	4.0	SW	4.00	7.0	SW	75.5	79.0	79.0	29.943	0.00	0.00	0.000	0.438	86.8	33	54.2	85.6	1405	1	100.0	60
07/04/19	4:00 a	75.0	75.5	75.0	92	72.5	4.0	SW	4.00	6.0	S	75.0	78.5	78.5	29.937	0.00	0.00	0.000	0.417	84.4	32	51.3	83.1	1405	1	100.0	60
07/04/19	5:00 a	74.7	75.0	74.6	93	72.5	4.0	S	4.00	7.0	S	74.7	78.0	78.0	29.942	0.00	0.00	0.000	0.404	85.0	33	52.7	83.8	1405	1	100.0	60
07/04/19	6:00 a	74.4	74.7	74.4	94	72.6	0.0	S	0.00	5.0	S	74.4	77.6	77.6	29.958	0.00	0.00	0.000	0.392	85.1	34	53.6	84.1	1405	1	100.0	60
07/04/19	7:00 a	75.3	75.3	74.4	97	74.4	4.0	S	4.00	5.0	S	75.3	79.2	79.2	29.974	0.00	0.00	0.000	0.429	83.5	32	50.5	82.0	1405	1	100.0	60
07/04/19	8:00 a	80.5	80.5	75.3	91	77.6	5.0	SW	5.00	10.0	SW	80.5	88.3	88.3	29.984	0.00	0.00	0.000	0.646	83.4	34	52.1	82.2	1405	1	100.0	60
07/04/19	9:00 a	83.4	83.4	80.5	85	78.4	4.0	SW	4.00	7.0	WSW	83.4	94.3	94.3	29.995	0.00	0.00	0.000	0.767	83.5	32	50.5	82.0	1405	1	100.0	60
07/04/19	10:00 a	86.9	86.9	83.4	71	76.4	4.0	ENE	4.00	7.0	NNW	86.9	97.7	97.7	30.001	0.00	0.00	0.000	0.913	85.2	34	53.7	84.2	1404	1	100.0	60
07/04/19	11:00 a	90.9	90.9	86.9	67	78.4	5.0	SSE	5.00	11.0	SSE	90.9	106.7	106.7	30.012	0.00	0.00	0.000	1.079	86.0	34	54.4	85.1	1405	1	100.0	60
07/04/19	12:00 p	91.8	91.8	90.9	62	76.9	6.0	S	6.00	13.0	S	91.8	105.8	105.8	30.018	0.00	0.00	0.000	1.117	88.9	36	58.5	88.5	1405	1	100.0	60
07/04/19	1:00 p	94.4	94.4	91.8	57	76.8	6.0	S	6.00	13.0	SSE	94.4	109.8	109.8	30.014	0.00	0.00	0.000	1.225	88.6	34	56.6	87.5	1405	1	100.0	60
07/04/19	2:00 p	96.6	96.6	94.4	56	78.3	5.0	S	5.00	16.0	S	96.6	115.6	115.6	29.983	0.00	0.00	0.000	1.317	90.7	36	60.1	91.1	1405	1	100.0	60
07/04/19	3:00 p	97.0	97.0	96.6	53	77.0	7.0	SSE	7.00	17.0	S	97.0	113.8	113.8	29.953	0.00	0.00	0.000	1.333	90.9	34	58.7	90.9	1405	1	100.0	60
07/04/19	4:00 p	90.4	97.0	90.4	61	75.1	7.0	S	7.00	17.0	NNE	90.4	101.4	101.4	29.959	0.00	0.00	0.000	1.058	90.2	35	58.8	90.2	1405	1	100.0	60
07/04/19	5:00 p	80.7	90.4	80.5	95	79.1	5.0	ENE	5.00	26.0	NNE	80.7	89.9	89.9	29.966	0.14	2.47	0.000	0.654	89.1	34	57.1	88.2	1405	1	100.0	60
07/04/19	6:00 p	81.4	81.4	80.7	97	80.5	5.0	NE	5.00	10.0	NE	81.4	92.7	92.7	29.970	0.00	0.00	0.000	0.683	90.1	33	57.1	89.7	1405	1	100.0	60
07/04/19	7:00 p	81.6	81.8	81.4	97	80.7	4.0	NE	4.00	11.0	SSE	81.6	93.3	93.3	29.986	0.00	0.00	0.000	0.692	88.8	34	56.8	87.7	1405	1	100.0	60
07/04/19	8:00 p	81.5	81.7	81.4	97	80.6	5.0	SSE	5.00	13.0	SSE	81.5	93.0	93.0	30.007	0.00	0.00	0.000	0.688	87.5	32	54.0	85.9	1405	1	100.0	60
07/04/19	9:00 p	78.9	81.5	78.9	91	76.0	7.0	SSE	7.00	24.0	WSW	78.9	84.7	84.7	30.052	0.00	0.00	0.000	0.579	88.2	35	57.1	87.1	1405	1	100.0	60
07/04/19	10:00 p	75.2	78.9	75.2	96	74.0	6.0	WNW	6.00	18.0	W	75.2	79.0	79.0	30.063	0.01	0.00	0.000	0.425	85.9	34	54.3	85.0	1405	1	100.0	60
07/04/19	11:00 p	74.4	75.2	74.3	96	73.2	4.0	NW	4.00	10.0	N	74.4	77.8	77.8	30.029	0.00	0.00	0.000	0.392	84.3	33	52.1	83.2	1405	1	100.0	60
07/05/19	12:00 a	73.9	74.3	73.9	97	73.0	0.0	WNW	0.00	5.0	WNW	73.9	77.1	77.1	30.045	0.00	0.00	0.000	0.371	85.3	34	53.8	84.3	1405	1	100.0	60
FRIDAY  		Temp	Hi	Low	Out	Dew	Wind	Wind	Wind	Hi	Hi	Wind	Heat	THW			Rain	Heat	Cool	In 	In	In 	In 	Wind	Wind	ISS 	Arc.
Date		Time	Out	Temp	Temp	Hum	Pt.	Speed	Dir	Run	Speed	Dir	Chill	Index	Index	Bar  	Rain	Rate	D-D 	D-D 	Temp	Hum	Dew	Heat	Samp	Tx 	Recept	Int.
07/05/19	1:00 a	73.5	73.9	73.5	97	72.6	0.0	WNW	0.00	4.0	WNW	73.5	76.7	76.7	30.058	0.00	0.00	0.000	0.354	82.2	32	49.4	80.5	1402	1	100.0	60
07/05/19	2:00 a	73.3	73.5	73.3	98	72.7	5.0	SW	5.00	7.0	WSW	73.3	76.6	76.6	30.073	0.00	0.00	0.000	0.346	83.4	34	52.1	82.2	1405	1	100.0	60
07/05/19	3:00 a	73.1	73.3	73.1	98	72.5	0.0	SW	0.00	5.0	SW	73.1	76.4	76.4	30.079	0.00	0.00	0.000	0.337	83.7	34	52.3	82.7	1405	1	100.0	60
07/05/19	4:00 a	72.8	73.1	72.8	98	72.2	0.0	SW	0.00	5.0	SW	72.8	76.1	76.1	30.068	0.00	0.00	0.000	0.325	83.6	35	53.1	82.7	1405	1	100.0	60
07/05/19	5:00 a	72.4	72.8	72.4	99	72.1	4.0	SW	4.00	5.0	SW	72.4	75.8	75.8	30.072	0.00	0.00	0.000	0.308	83.5	35	53.0	82.6	1405	1	100.0	60
07/05/19	6:00 a	71.9	72.4	71.9	99	71.6	0.0	SW	0.00	5.0	SW	71.9	75.3	75.3	30.089	0.00	0.00	0.000	0.288	83.5	36	53.7	82.7	1405	1	100.0	60
07/05/19	7:00 a	72.8	72.8	71.8	100	72.8	0.0	SW	0.00	10.0	SW	72.8	76.4	76.4	30.095	0.00	0.00	0.000	0.325	82.1	35	51.7	80.8	1405	1	100.0	60
07/05/19	8:00 a	75.8	75.8	72.8	100	75.8	4.0	SW	4.00	6.0	SW	75.8	80.0	80.0	30.105	0.00	0.00	0.000	0.450	83.4	35	52.9	82.4	1405	1	100.0	60
07/05/19	9:00 a	78.0	78.0	75.8	93	75.8	5.0	WNW	5.00	10.0	WSW	78.0	83.2	83.2	30.104	0.00	0.00	0.000	0.542	84.0	34	52.6	83.1	1405	1	100.0	60
07/05/19	10:00 a	82.4	82.4	78.0	85	77.4	4.0	WNW	4.00	10.0	WNW	82.4	91.5	91.5	30.105	0.00	0.00	0.000	0.725	85.0	35	54.3	84.2	1405	1	100.0	60
07/05/19	11:00 a	86.6	86.6	82.5	73	76.9	5.0	SW	5.00	12.0	SSE	86.6	97.8	97.8	30.099	0.00	0.00	0.000	0.900	86.4	33	53.9	85.3	1405	1	100.0	60
07/05/19	12:00 p	89.0	89.0	86.6	70	77.9	3.0	SSE	3.00	15.0	SSE	89.0	102.3	102.3	30.096	0.00	0.00	0.000	1.000	88.0	37	58.5	87.3	1404	1	100.0	60
07/05/19	1:00 p	90.1	90.1	88.9	64	76.3	5.0	SW	5.00	12.0	W	90.1	102.5	102.5	30.091	0.00	0.00	0.000	1.046	88.5	33	55.7	87.1	1405	1	100.0	60
07/05/19	2:00 p	92.1	92.1	90.0	64	78.2	5.0	SW	5.00	14.0	WSW	92.1	108.2	108.2	30.072	0.00	0.00	0.000	1.129	91.0	38	61.9	92.2	1405	1	100.0	60
07/05/19	3:00 p	92.1	92.1	92.1	61	76.7	6.0	SW	6.00	15.0	WSW	92.1	105.9	105.9	30.055	0.00	0.00	0.000	1.129	91.2	32	57.2	90.9	1406	1	100.0	60
07/05/19	4:00 p	90.8	92.1	90.8	65	77.4	6.0	SW	6.00	19.0	ENE	90.8	105.0	105.0	30.053	0.00	0.00	0.000	1.075	92.6	37	62.5	94.3	1404	1	100.0	60
07/05/19	5:00 p	86.4	90.8	86.4	84	81.0	10.0	SSE	10.00	21.0	ESE	85.7	102.3	101.6	30.069	0.01	0.00	0.000	0.892	92.3	33	59.0	92.5	1405	1	100.0	60
07/05/19	6:00 p	83.9	86.4	83.6	88	80.0	6.0	SSE	6.00	19.0	SSE	83.9	96.9	96.9	30.053	0.00	0.00	0.000	0.788	91.9	35	60.3	92.5	1405	1	100.0	60
07/05/19	7:00 p	83.9	84.5	83.9	79	76.7	7.0	SSW	7.00	22.0	SSE	83.9	93.9	93.9	30.043	0.00	0.00	0.000	0.788	90.6	33	57.6	90.3	1405	1	100.0	60
07/05/19	8:00 p	82.8	83.9	82.8	82	76.7	7.0	SSW	7.00	16.0	WSW	82.8	91.7	91.7	30.057	0.00	0.00	0.000	0.742	87.5	33	54.9	86.1	1405	1	100.0	60
07/05/19	9:00 p	80.7	82.8	80.7	86	76.1	5.0	SSW	5.00	16.0	SW	80.7	87.4	87.4	30.060	0.00	0.00	0.000	0.654	88.5	33	55.7	87.1	1405	1	100.0	60
07/05/19	10:00 p	79.2	80.7	79.2	88	75.3	5.0	SSW	5.00	13.0	WSW	79.2	84.7	84.7	30.072	0.00	0.00	0.000	0.592	88.8	34	56.8	87.7	1405	1	100.0	60
07/05/19	11:00 p	78.0	79.2	78.0	89	74.5	5.0	S	5.00	13.0	S	78.0	82.7	82.7	30.070	0.00	0.00	0.000	0.542	85.9	33	53.5	84.8	1405	1	100.0	60
07/06/19	12:00 a	76.9	78.0	76.9	89	73.4	5.0	SW	5.00	12.0	SW	76.9	80.8	80.8	30.070	0.00	0.00	0.000	0.496	87.1	35	56.1	86.3	1405	1	100.0	60
SATURDAY		Temp	Hi	Low	Out	Dew	Wind	Wind	Wind	Hi	Hi	Wind	Heat	THW			Rain	Heat	Cool	In 	In	In 	In 	Wind	Wind	ISS 	Arc.
Date		Time	Out	Temp	Temp	Hum	Pt.	Speed	Dir	Run	Speed	Dir	Chill	Index	Index	Bar  	Rain	Rate	D-D 	D-D 	Temp	Hum	Dew	Heat	Samp	Tx 	Recept	Int.
07/06/19	1:00 a	76.1	76.9	76.1	92	73.6	5.0	SSW	5.00	15.0	SW	76.1	79.8	79.8	30.055	0.00	0.00	0.000	0.462	85.0	33	52.7	83.8	1403	1	100.0	60
07/06/19	2:00 a	75.4	76.1	75.4	94	73.6	5.0	SW	5.00	13.0	WSW	75.4	79.1	79.1	30.044	0.00	0.00	0.000	0.433	85.6	35	54.8	84.9	1405	1	100.0	60
07/06/19	3:00 a	75.2	75.4	75.1	96	74.0	5.0	SSW	5.00	13.0	WSW	75.2	79.0	79.0	30.036	0.00	0.00	0.000	0.425	85.7	35	54.9	85.0	1405	1	100.0	60
07/06/19	4:00 a	75.2	75.2	75.1	96	74.0	5.0	SW	5.00	14.0	WSW	75.2	79.0	79.0	30.020	0.00	0.00	0.000	0.425	84.2	35	53.6	83.5	1405	1	100.0	60
07/06/19	5:00 a	75.2	75.2	75.1	97	74.3	5.0	SW	5.00	14.0	SW	75.2	79.0	79.0	30.017	0.00	0.00	0.000	0.425	84.6	36	54.7	84.0	1405	1	100.0	60
07/06/19	6:00 a	75.2	75.3	75.2	97	74.3	5.0	SW	5.00	15.0	SW	75.2	79.0	79.0	30.023	0.00	0.00	0.000	0.425	82.6	35	52.2	81.4	1405	1	100.0	60
07/06/19	7:00 a	75.5	75.5	75.2	97	74.6	5.0	SW	5.00	13.0	SSE	75.5	79.4	79.4	30.023	0.00	0.00	0.000	0.438	84.0	36	54.2	83.5	1405	1	100.0	60
07/06/19	8:00 a	76.6	76.6	75.5	96	75.4	5.0	SW	5.00	13.0	WSW	76.6	81.0	81.0	30.030	0.00	0.00	0.000	0.483	83.6	36	53.8	82.9	1405	1	100.0	60
07/06/19	9:00 a	77.8	77.8	76.6	94	75.9	6.0	SW	6.00	15.0	SW	77.8	82.9	82.9	30.037	0.00	0.00	0.000	0.533	82.2	36	52.6	81.1	1405	1	100.0	60
07/06/19	10:00 a	78.8	78.8	77.8	93	76.6	6.0	SW	6.00	16.0	SW	78.8	84.9	84.9	30.031	0.00	0.00	0.000	0.575	83.0	35	52.5	81.8	1405	1	100.0	60
07/06/19	11:00 a	79.8	79.8	78.8	92	77.3	6.0	SW	6.00	17.0	SW	79.8	86.9	86.9	30.024	0.00	0.00	0.000	0.617	83.2	37	54.2	82.5	1405	1	100.0	60
07/06/19	12:00 p	83.3	83.3	79.8	86	78.7	7.0	SW	7.00	17.0	SW	83.3	94.4	94.4	30.022	0.00	0.00	0.000	0.763	85.1	38	56.6	84.8	1405	1	100.0	60
07/06/19	1:00 p	87.5	87.5	83.3	77	79.4	7.0	SW	7.00	24.0	SW	87.5	101.6	101.6	29.997	0.00	0.00	0.000	0.938	84.3	37	55.2	84.0	1405	1	100.0	60
07/06/19	2:00 p	90.4	90.4	87.6	72	80.1	7.0	SSW	7.00	19.0	SW	90.4	108.6	108.6	29.957	0.00	0.00	0.000	1.058	87.4	36	57.2	86.7	1405	1	100.0	60
07/06/19	3:00 p	91.6	91.6	90.4	70	80.4	7.0	SW	7.00	18.0	SW	91.6	111.0	111.0	29.930	0.00	0.00	0.000	1.108	88.0	37	58.5	87.3	1405	1	100.0	60
07/06/19	4:00 p	92.2	92.2	91.6	67	79.7	7.0	SSW	7.00	19.0	WSW	92.2	110.7	110.7	29.916	0.00	0.00	0.000	1.133	89.2	34	57.2	88.4	1404	1	100.0	60
07/06/19	5:00 p	92.0	92.2	92.0	64	78.1	5.0	SW	5.00	18.0	SW	92.0	107.9	107.9	29.904	0.00	0.00	0.000	1.125	89.9	38	60.9	90.5	1406	1	100.0	60
07/06/19	6:00 p	92.0	92.2	91.2	62	77.1	7.0	SW	7.00	20.0	SSE	92.0	106.4	106.4	29.877	0.00	0.00	0.000	1.125	90.2	35	58.8	90.2	1404	1	100.0	60
07/06/19	7:00 p	91.5	91.0	90.0	63	77.1	6.0	SW	6.00	18.0	SW	91.5	105.7	105.7	29.872	0.00	0.00	0.000	1.104	88.5	34	56.6	87.3	1405	1	100.0	60
07/06/19	8:00 p	90.0	91.5	90.0	68	78.0	5.0	SW	5.00	11.0	SSW	90.0	104.6	104.6	29.879	0.00	0.00	0.000	1.042	89.7	35	58.4	89.4	1405	1	100.0	60
07/06/19	9:00 p	88.1	90.3	88.1	73	78.3	4.0	SW	4.00	7.0	SSW	88.1	100.8	100.8	29.893	0.00	0.00	0.000	0.962	87.5	33	54.9	86.1	1405	1	100.0	60
07/06/19	10:00 p	85.7	88.1	85.7	77	77.7	5.0	SW	5.00	11.0	SSW	85.7	97.0	97.0	29.899	0.00	0.00	0.000	0.862	88.4	35	57.3	87.4	1405	1	100.0	60
07/06/19	11:00 p	84.4	85.7	84.4	81	77.9	4.0	SW	4.00	10.0	SW	84.4	95.6	95.6	29.896	0.00	0.00	0.000	0.808	85.8	34	54.2	84.9	1405	1	100.0	60
07/07/19	12:00 a	83.2	84.4	83.2	85	78.2	5.0	SSW	5.00	12.0	WSW	83.2	93.7	93.7	29.897	0.00	0.00	0.000	0.758	87.0	35	56.0	86.2	1405	1	100.0	60
SUNDAY			Temp	Hi	Low	Out	Dew	Wind	Wind	Wind	Hi	Hi	Wind	Heat	THW			Rain	Heat	Cool	In 	In	In 	In 	Wind	Wind	ISS 	Arc.
Date		Time	Out	Temp	Temp	Hum	Pt.	Speed	Dir	Run	Speed	Dir	Chill	Index	Index	Bar  	Rain	Rate	D-D 	D-D 	Temp	Hum	Dew	Heat	Samp	Tx 	Recept	Int.
07/07/19	1:00 a	82.3	83.2	82.3	87	78.0	6.0	SW	6.00	17.0	SSW	82.3	91.9	91.9	29.896	0.00	0.00	0.000	0.721	85.0	35	54.3	84.2	1404	1	100.0	60
07/07/19	2:00 a	80.9	82.3	80.9	88	77.0	6.0	SW	6.00	15.0	SSW	80.9	88.4	88.4	29.873	0.00	0.00	0.000	0.663	85.9	36	55.8	85.4	1405	1	100.0	60
07/07/19	3:00 a	79.9	80.9	79.9	89	76.4	4.0	SSW	4.00	14.0	SW	79.9	86.4	86.4	29.867	0.00	0.00	0.000	0.621	86.1	36	56.0	85.6	1405	1	100.0	60
07/07/19	4:00 a	79.2	79.9	79.2	90	76.0	5.0	SW	5.00	14.0	SW	79.2	85.1	85.1	29.870	0.00	0.00	0.000	0.592	83.9	35	53.3	83.2	1404	1	100.0	60
07/07/19	5:00 a	78.6	79.2	78.6	90	75.4	4.0	SW	4.00	11.0	SW	78.6	83.9	83.9	29.873	0.00	0.00	0.000	0.567	84.8	36	54.9	84.2	1405	1	100.0	60
07/07/19	6:00 a	78.1	78.6	78.0	91	75.3	5.0	SW	5.00	11.0	SW	78.1	83.1	83.1	29.876	0.00	0.00	0.000	0.546	84.9	37	55.7	84.5	1406	1	100.0	60
07/07/19	7:00 a	77.8	78.0	77.8	92	75.3	5.0	SW	5.00	10.0	SW	77.8	82.7	82.7	29.882	0.00	0.00	0.000	0.533	83.4	36	53.6	82.6	1404	1	100.0	60
07/07/19	8:00 a	80.2	80.2	77.8	90	77.0	5.0	SW	5.00	14.0	SW	80.2	87.3	87.3	29.883	0.00	0.00	0.000	0.633	84.7	36	54.8	84.1	1405	1	100.0	60
07/07/19	9:00 a	83.2	83.2	80.2	86	78.6	6.0	SW	6.00	18.0	SW	83.2	94.0	94.0	29.897	0.00	0.00	0.000	0.758	82.3	34	51.1	80.9	1405	1	100.0	60
07/07/19	10:00 a	84.2	84.2	83.2	84	78.8	6.0	SW	6.00	14.0	SW	84.2	96.2	96.2	29.898	0.00	0.00	0.000	0.800	84.6	37	55.5	84.2	1405	1	100.0	60
07/07/19	11:00 a	87.0	87.0	84.2	79	79.7	5.0	WSW	5.00	14.0	SSW	87.0	101.6	101.6	29.897	0.00	0.00	0.000	0.917	84.1	37	55.0	83.8	1405	1	100.0	60
07/07/19	12:00 p	88.4	88.4	87.0	77	80.3	5.0	SW	5.00	14.0	W	88.4	104.4	104.4	29.899	0.00	0.00	0.000	0.975	87.6	39	59.6	87.6	1405	1	100.0	60
07/07/19	1:00 p	88.4	88.5	88.3	78	80.7	5.0	SW	5.00	12.0	WNW	88.4	105.0	105.0	29.882	0.00	0.00	0.000	0.975	86.9	35	56.0	86.1	1403	1	100.0	60
07/07/19	2:00 p	90.9	91.0	88.4	71	80.2	5.0	SW	5.00	12.0	SW	90.9	109.5	109.5	29.850	0.00	0.00	0.000	1.079	89.0	38	60.1	89.3	1405	1	100.0	60
07/07/19	3:00 p	89.3	91.0	89.3	74	79.9	6.0	ENE	6.00	13.0	ENE	89.3	106.0	106.0	29.826	0.00	0.00	0.000	1.013	88.0	35	56.9	86.8	1405	1	100.0	60
07/07/19	4:00 p	85.2	89.3	85.2	79	77.9	7.0	S	7.00	19.0	SSW	85.2	96.5	96.5	29.855	0.06	1.99	0.000	0.842	89.7	38	60.7	90.3	1405	1	100.0	60
07/07/19	5:00 p	76.4	85.2	76.4	95	74.9	5.0	SSE	5.00	15.0	SSE	76.4	80.6	80.6	29.868	1.39	25.04	0.000	0.475	87.3	35	56.3	86.4	1405	1	100.0	60
07/07/19	6:00 p	75.7	76.5	75.7	98	75.1	4.0	SSW	4.00	7.0	SSE	75.7	79.8	79.8	29.873	0.04	0.14	0.000	0.446	86.2	35	55.3	85.5	1405	1	100.0	60
07/07/19	7:00 p	75.3	75.7	75.3	99	75.0	4.0	SW	4.00	7.0	SSW	75.3	79.2	79.2	29.838	0.06	0.15	0.000	0.429	86.8	34	55.1	85.8	1404	1	100.0	60
07/07/19	8:00 p	75.3	75.3	75.1	100	75.3	5.0	SSW	5.00	7.0	WNW	75.3	79.3	79.3	29.860	0.01	0.06	0.000	0.429	85.3	35	54.5	84.5	1406	1	100.0	60
07/07/19	9:00 p	75.1	75.3	75.1	100	75.1	0.0	SSW	0.00	6.0	SSW	75.1	79.0	79.0	29.862	0.00	0.00	0.000	0.421	86.0	35	55.2	85.3	1405	1	100.0	60
07/07/19	10:00 p	74.6	75.1	74.6	100	74.6	4.0	SSW	4.00	5.0	SSW	74.6	78.3	78.3	29.865	0.01	0.00	0.000	0.400	84.0	35	53.4	83.3	1404	1	100.0	60
07/07/19	11:00 p	74.0	74.6	74.0	100	74.0	5.0	SSW	5.00	7.0	S	74.0	77.6	77.6	29.879	0.00	0.00	0.000	0.375	84.2	36	54.4	83.7	1405	1	100.0	60
07/08/19	12:00 a	74.0	74.0	73.9	100	74.0	4.0	S	4.00	10.0	ENE	74.0	77.6	77.6	29.868	0.00	0.00	0.000	0.375	82.2	34	51.0	80.8	1405	1	100.0	60
MONDAY			Temp	Hi	Low	Out	Dew	Wind	Wind	Wind	Hi	Hi	Wind	Heat	THW			Rain	Heat	Cool	In 	In	In 	In 	Wind	Wind	ISS 	Arc.
Date		Time	Out	Temp	Temp	Hum	Pt.	Speed	Dir	Run	Speed	Dir	Chill	Index	Index	Bar  	Rain	Rate	D-D 	D-D 	Temp	Hum	Dew	Heat	Samp	Tx 	Recept	Int.
07/08/19	1:00 a	73.9	74.0	73.8	100	73.9	0.0	ENE	0.00	6.0	E	73.9	77.5	77.5	29.852	0.07	1.12	0.000	0.371	83.4	35	52.9	82.4	1404	1	100.0	60
07/08/19	2:00 a	73.9	74.0	73.9	100	73.9	0.0	E	0.00	5.0	E	73.9	77.5	77.5	29.844	0.00	0.00	0.000	0.371	83.6	36	53.8	82.9	1405	1	100.0	60
07/08/19	3:00 a	73.9	73.9	73.8	100	73.9	0.0	E	0.00	5.0	E	73.9	77.5	77.5	29.832	0.00	0.00	0.000	0.371	83.6	36	53.8	82.9	1405	1	100.0	60
07/08/19	4:00 a	74.3	74.3	73.8	100	74.3	4.0	NNW	4.00	7.0	NNW	74.3	78.0	78.0	29.813	0.40	7.20	0.000	0.388	83.0	36	53.3	82.0	1405	1	100.0	60
07/08/19	5:00 a	74.6	74.6	74.2	100	74.6	4.0	SSE	4.00	10.0	SSE	74.6	78.3	78.3	29.820	0.01	0.09	0.000	0.400	83.2	37	54.2	82.5	1405	1	100.0	60
07/08/19	6:00 a	74.4	74.6	74.4	100	74.4	4.0	SSE	4.00	7.0	SSE	74.4	78.1	78.1	29.825	0.00	0.00	0.000	0.392	83.2	37	54.2	82.5	1405	1	100.0	60
07/08/19	7:00 a	74.3	74.5	74.2	100	74.3	4.0	SSE	4.00	10.0	SSE	74.3	78.0	78.0	29.838	0.00	0.00	0.000	0.388	83.4	38	55.1	83.0	1182	1	86.4	60
07/08/19	8:00 a	74.6	74.6	74.2	100	74.6	4.0	SSE	4.00	5.0	SSE	74.6	78.3	78.3	29.839	0.00	0.00	0.000	0.400	82.4	36	52.8	81.3	1405	1	100.0	60
07/08/19	9:00 a	78.0	78.0	74.6	100	78.0	4.0	S	4.00	10.0	S	78.0	84.4	84.4	29.831	0.00	0.00	0.000	0.542	83.0	37	54.0	82.2	1405	1	100.0	60
07/08/19	10:00 a	78.7	78.7	78.0	100	78.7	4.0	WSW	4.00	7.0	N	78.7	86.1	86.1	29.820	0.00	0.00	0.000	0.571	84.2	36	54.4	83.7	1405	1	100.0	60
07/08/19	11:00 a	79.8	79.9	78.7	100	79.8	5.0	SW	5.00	12.0	WSW	79.8	89.0	89.0	29.832	0.00	0.00	0.000	0.617	84.6	38	56.2	84.4	1405	1	100.0	60
07/08/19	12:00 p	80.8	80.8	79.5	99	80.5	5.0	WNW	5.00	12.0	WNW	80.8	91.6	91.6	29.833	0.00	0.00	0.000	0.658	86.7	41	60.2	87.3	1404	1	100.0	60
07/08/19	1:00 p	82.5	82.5	80.8	91	79.6	6.0	NW	6.00	14.0	NW	82.5	93.9	93.9	29.822	0.00	0.00	0.000	0.729	86.3	40	59.1	86.6	1406	1	100.0	60
07/08/19	2:00 p	86.5	86.5	82.5	81	80.0	6.0	WNW	6.00	13.0	NNW	86.5	101.0	101.0	29.811	0.00	0.00	0.000	0.896	88.9	43	63.5	90.9	1404	1	100.0	60
07/08/19	3:00 p	86.6	87.0	86.5	74	77.3	6.0	NNW	6.00	14.0	NNW	86.6	98.2	98.2	29.803	0.00	0.00	0.000	0.900	87.9	39	59.8	87.8	1405	1	100.0	60
07/08/19	4:00 p	84.3	86.9	84.3	90	81.0	7.0	SSE	7.00	18.0	SSE	84.3	98.9	98.9	29.813	0.04	0.46	0.000	0.804	89.7	40	62.2	90.8	1405	1	100.0	60
07/08/19	5:00 p	76.4	84.3	76.4	97	75.5	7.0	ENE	7.00	19.0	NNW	76.4	80.8	80.8	29.841	0.37	3.05	0.000	0.475	87.7	39	59.7	87.6	1405	1	100.0	60
07/08/19	6:00 p	76.3	76.4	76.1	99	76.0	6.0	ENE	6.00	17.0	NE	76.3	80.8	80.8	29.847	0.01	0.04	0.000	0.471	88.5	39	60.4	88.8	1405	1	100.0	60
07/08/19	7:00 p	75.4	76.3	74.8	91	72.6	11.0	ENE	11.00	21.0	NE	73.0	78.9	76.5	29.873	0.00	0.00	0.000	0.433	86.9	38	58.2	86.8	1405	1	100.0	60
07/08/19	8:00 p	76.4	76.5	75.4	85	71.6	11.0	NE	11.00	20.0	NE	74.1	79.8	77.5	29.896	0.00	0.00	0.000	0.475	86.0	35	55.2	85.3	1405	1	100.0	60
07/08/19	9:00 p	76.1	76.4	76.0	92	73.6	7.0	NE	7.00	17.0	ENE	76.1	79.8	79.8	29.920	0.00	0.00	0.000	0.462	84.9	38	56.5	84.7	1405	1	100.0	60
07/08/19	10:00 p	76.3	76.4	76.1	91	73.5	12.0	NE	12.00	21.0	NE	73.6	80.1	77.4	29.937	0.00	0.00	0.000	0.471	86.1	40	59.0	86.3	1405	1	100.0	60
07/08/19	11:00 p	75.8	76.3	75.8	89	72.3	11.0	NE	11.00	20.0	NE	73.5	79.2	76.9	29.942	0.00	0.00	0.000	0.450	84.0	39	56.4	84.1	1405	1	100.0	60
07/09/19	12:00 a	75.8	75.8	75.6	85	71.0	11.0	ENE	11.00	20.0	N	73.5	79.0	76.7	29.955	0.00	0.00	0.000	0.450	85.3	40	58.2	85.4	1405	1	100.0	60
TUESDAY			Hi	Low	Out	Dew	Wind	Wind	Wind	Hi	Hi	Wind	Heat	THW			Rain	Heat	Cool	In 	In	In 	In 	Wind	Wind	ISS 	Arc.
Date		Time	Out	Temp	Temp	Hum	Pt.	Speed	Dir	Run	Speed	Dir	Chill	Index	Index	Bar  	Rain	Rate	D-D 	D-D 	Temp	Hum	Dew	Heat	Samp	Tx 	Recept	Int.
07/09/19	1:00 a	75.5	75.8	75.5	84	70.3	10.0	NE	10.00	19.0	ENE	73.6	78.5	76.6	29.965	0.00	0.00	0.000	0.438	83.5	38	55.2	83.1	1403	1	100.0	60
07/09/19	2:00 a	75.2	75.5	75.1	82	69.3	6.0	NE	6.00	15.0	NE	75.2	78.0	78.0	29.969	0.00	0.00	0.000	0.425	84.4	39	56.7	84.4	1405	1	100.0	60
07/09/19	3:00 a	74.8	75.2	74.8	82	68.9	6.0	NE	6.00	15.0	NE	74.8	77.4	77.4	29.953	0.00	0.00	0.000	0.408	84.4	40	57.4	84.6	1405	1	100.0	60
07/09/19	4:00 a	74.0	74.8	73.9	80	67.4	6.0	NE	6.00	16.0	ENE	74.0	76.0	76.0	29.967	0.00	0.00	0.000	0.375	82.5	38	54.3	81.7	1405	1	100.0	60
07/09/19	5:00 a	73.9	74.1	73.9	82	68.1	7.0	NE	7.00	16.0	E	73.9	76.0	76.0	29.982	0.00	0.00	0.000	0.371	82.5	40	55.7	82.0	1405	1	100.0	60
07/09/19	6:00 a	73.5	73.9	73.5	82	67.7	6.0	NE	6.00	14.0	ENE	73.5	75.5	75.5	29.996	0.00	0.00	0.000	0.354	82.7	40	55.9	82.3	1405	1	100.0	60
07/09/19	7:00 a	75.0	75.0	73.4	80	68.4	6.0	NE	6.00	14.0	NE	75.0	77.5	77.5	30.003	0.00	0.00	0.000	0.417	80.3	36	50.9	78.9	1405	1	100.0	60
07/09/19	8:00 a	77.4	77.4	75.0	75	68.9	7.0	NE	7.00	18.0	NE	77.4	79.9	79.9	30.025	0.00	0.00	0.000	0.517	82.1	39	54.7	81.3	1405	1	100.0	60
07/09/19	9:00 a	78.2	78.2	77.4	73	68.8	11.0	ENE	11.00	19.0	NE	76.0	80.6	78.4	30.042	0.00	0.00	0.000	0.550	81.8	39	54.4	80.9	1405	1	100.0	60
07/09/19	10:00 a	80.4	80.4	78.2	64	67.1	10.0	ENE	10.00	19.0	NE	78.8	82.5	80.9	30.045	0.00	0.00	0.000	0.642	83.9	41	57.7	84.3	1405	1	100.0	60
07/09/19	11:00 a	81.1	81.1	80.4	64	67.8	11.0	ENE	11.00	20.0	NE	79.3	83.5	81.7	30.053	0.00	0.00	0.000	0.671	83.0	38	54.8	82.3	1405	1	100.0	60
07/09/19	12:00 p	81.5	81.5	81.1	66	69.0	10.0	ENE	10.00	20.0	NE	80.1	84.5	83.1	30.064	0.00	0.00	0.000	0.688	85.9	41	59.5	86.3	1405	1	100.0	60
07/09/19	1:00 p	82.4	82.4	81.5	63	68.5	11.0	ENE	11.00	19.0	ENE	80.8	85.4	83.8	30.063	0.00	0.00	0.000	0.725	85.8	38	57.3	85.6	1405	1	100.0	60
07/09/19	2:00 p	83.1	83.1	82.4	52	63.7	7.0	ENE	7.00	18.0	NNE	83.1	84.6	84.6	30.065	0.00	0.00	0.000	0.754	88.4	41	61.7	89.2	1405	1	100.0	60
07/09/19	3:00 p	83.1	83.1	83.1	57	66.3	10.0	ENE	10.00	18.0	NE	81.9	85.4	84.2	30.048	0.00	0.00	0.000	0.754	87.2	37	57.8	86.8	1404	1	100.0	60
07/09/19	4:00 p	83.1	83.1	83.1	58	66.8	10.0	ENE	10.00	21.0	NE	81.9	85.6	84.4	30.043	0.00	0.00	0.000	0.754	90.9	38	61.8	92.1	1405	1	100.0	60
07/09/19	5:00 p	82.9	83.1	82.5	53	64.0	10.0	ENE	10.00	19.0	NE	81.7	84.5	83.3	30.044	0.00	0.00	0.000	0.746	89.7	35	58.4	89.4	1405	1	100.0	60
07/09/19	6:00 p	83.1	83.1	82.9	52	63.7	6.0	ENE	6.00	16.0	NNE	83.1	84.6	84.6	30.040	0.00	0.00	0.000	0.754	91.8	34	59.4	92.1	1405	1	100.0	60
07/09/19	7:00 p	82.1	83.1	82.1	57	65.4	6.0	NE	6.00	15.0	NE	82.1	83.9	83.9	30.039	0.00	0.00	0.000	0.712	90.0	34	57.9	89.7	1405	1	100.0	60
07/09/19	8:00 p	81.9	82.1	81.9	61	67.1	4.0	SSE	4.00	13.0	SSE	81.9	84.2	84.2	30.048	0.00	0.00	0.000	0.704	89.8	33	56.9	89.2	1405	1	100.0	60
07/09/19	9:00 p	78.7	81.9	78.7	66	66.4	4.0	ESE	4.00	7.0	SSE	78.7	80.4	80.4	30.060	0.00	0.00	0.000	0.571	87.8	34	55.9	86.5	1405	1	100.0	60
07/09/19	10:00 p	75.0	78.7	75.0	74	66.1	4.0	ESE	4.00	6.0	ESE	75.0	77.0	77.0	30.073	0.00	0.00	0.000	0.417	87.6	35	56.6	86.6	1405	1	100.0	60
07/09/19	11:00 p	72.4	75.0	72.4	81	66.2	0.0	E	0.00	5.0	SE	72.4	74.0	74.0	30.078	0.00	0.00	0.000	0.308	83.7	32	50.7	82.3	1405	1	100.0	60
07/10/19	12:00 a	70.2	72.4	70.1	86	65.8	4.0	E	4.00	5.0	E	70.2	71.9	71.9	30.067	0.00	0.00	0.000	0.217	83.7	34	52.3	82.7	1405	1	100.0	60
WEDNESDAY		Temp	Hi	Low	Out	Dew	Wind	Wind	Wind	Hi	Hi	Wind	Heat	THW			Rain	Heat	Cool	In 	In	In 	In 	Wind	Wind	ISS 	Arc.
Date		Time	Out	Temp	Temp	Hum	Pt.	Speed	Dir	Run	Speed	Dir	Chill	Index	Index	Bar  	Rain	Rate	D-D 	D-D 	Temp	Hum	Dew	Heat	Samp	Tx 	Recept	Int.
07/10/19	1:00 a	68.1	70.1	68.1	89	64.7	0.0	E	0.00	5.0	E	68.1	69.8	69.8	30.054	0.00	0.00	0.000	0.129	83.1	33	51.0	81.6	1404	1	100.0	60
07/10/19	2:00 a	66.8	68.1	66.7	91	64.1	0.0	ENE	0.00	5.0	ENE	66.8	68.3	68.3	30.050	0.00	0.00	0.000	0.075	82.7	35	52.3	81.5	1405	1	100.0	60
07/10/19	3:00 a	65.9	66.7	65.9	94	64.1	0.0	ENE	0.00	5.0	ENE	65.9	67.3	67.3	30.059	0.00	0.00	0.000	0.038	82.5	35	52.1	81.3	1405	1	100.0	60
07/10/19	4:00 a	65.3	65.9	65.3	95	63.8	0.0	ENE	0.00	5.0	ENE	65.3	66.6	66.6	30.068	0.00	0.00	0.000	0.013	82.1	36	52.5	80.9	1404	1	100.0	60
07/10/19	5:00 a	64.8	65.4	64.8	95	63.3	0.0	ENE	0.00	4.0	ENE	64.8	66.0	66.0	30.062	0.00	0.00	0.008	0.000	81.6	37	52.8	80.4	1405	1	100.0	60
07/10/19	6:00 a	64.3	64.8	64.3	96	63.1	0.0	ENE	0.00	5.0	ENE	64.3	65.4	65.4	30.058	0.00	0.00	0.029	0.000	81.5	37	52.7	80.3	1405	1	100.0	60
07/10/19	7:00 a	67.3	67.3	64.1	99	67.0	0.0	ENE	0.00	5.0	ENE	67.3	69.1	69.1	30.064	0.00	0.00	0.000	0.096	81.5	37	52.7	80.3	1405	1	100.0	60
07/10/19	8:00 a	75.4	75.4	67.3	86	70.9	0.0	ENE	0.00	7.0	SE	75.4	78.6	78.6	30.070	0.00	0.00	0.000	0.433	81.5	39	54.2	80.5	1405	1	100.0	60
07/10/19	9:00 a	79.0	79.0	75.4	81	72.7	5.0	SSE	5.00	10.0	SSE	79.0	83.0	83.0	30.070	0.00	0.00	0.000	0.583	81.0	37	52.3	79.7	1405	1	100.0	60
07/10/19	10:00 a	83.0	83.0	79.0	65	70.0	5.0	SSE	5.00	11.0	S	83.0	86.9	86.9	30.068	0.00	0.00	0.000	0.750	83.6	37	54.6	83.1	1405	1	100.0	60
07/10/19	11:00 a	84.3	84.3	83.0	61	69.4	5.0	ENE	5.00	11.0	ENE	84.3	88.5	88.5	30.071	0.00	0.00	0.000	0.804	83.5	35	53.0	82.6	1405	1	100.0	60
07/10/19	12:00 p	86.6	86.6	84.3	59	70.6	6.0	S	6.00	16.0	S	86.6	92.4	92.4	30.068	0.00	0.00	0.000	0.900	86.6	38	58.0	86.5	1405	1	100.0	60
07/10/19	1:00 p	88.9	88.9	86.6	60	73.2	6.0	SSE	6.00	15.0	SSE	88.9	97.1	97.1	30.047	0.00	0.00	0.000	0.996	86.5	39	58.6	86.6	1405	1	100.0	60
07/10/19	2:00 p	90.2	90.3	88.9	57	72.9	6.0	SSE	6.00	15.0	SE	90.2	98.8	98.8	30.030	0.00	0.00	0.000	1.050	89.4	35	58.1	88.9	1405	1	100.0	60
07/10/19	3:00 p	90.3	90.3	90.1	60	74.5	6.0	SSE	6.00	16.0	WSW	90.3	100.6	100.6	30.023	0.00	0.00	0.000	1.054	89.6	36	59.1	89.6	1405	1	100.0	60
07/10/19	4:00 p	90.4	90.4	90.3	48	68.0	6.0	S	6.00	14.0	SSW	90.4	95.1	95.1	30.009	0.00	0.00	0.000	1.058	91.5	33	58.3	91.5	1405	1	100.0	60
07/10/19	5:00 p	90.4	90.4	90.4	55	72.0	5.0	WSW	5.00	13.0	SSE	90.4	98.3	98.3	29.995	0.00	0.00	0.000	1.058	91.3	34	59.0	91.4	1405	1	100.0	60
07/10/19	6:00 p	89.8	90.4	89.8	59	73.6	5.0	NNW	5.00	12.0	NE	89.8	98.8	98.8	29.984	0.00	0.00	0.000	1.033	89.8	33	56.9	89.2	1405	1	100.0	60
07/10/19	7:00 p	89.9	89.9	89.7	69	78.4	6.0	SSE	6.00	13.0	SSE	89.9	104.9	104.9	29.988	0.00	0.00	0.000	1.038	88.5	33	55.7	87.1	1404	1	100.0	60
07/10/19	8:00 p	86.0	89.9	86.0	75	77.1	6.0	SSE	6.00	15.0	SSE	86.0	97.0	97.0	29.987	0.00	0.00	0.000	0.875	89.3	34	57.3	88.5	1405	1	100.0	60
07/10/19	9:00 p	82.4	86.0	82.4	82	76.3	5.0	SSE	5.00	13.0	SSE	82.4	90.6	90.6	29.986	0.00	0.00	0.000	0.725	87.0	32	53.6	85.6	1405	1	100.0	60
07/10/19	10:00 p	80.1	82.4	80.1	88	76.2	6.0	SSE	6.00	14.0	SSE	80.1	86.6	86.6	29.990	0.00	0.00	0.000	0.629	87.7	34	55.9	86.4	1405	1	100.0	60
07/10/19	11:00 p	78.6	80.1	78.6	91	75.8	4.0	SSE	4.00	10.0	SSE	78.6	84.1	84.1	29.985	0.00	0.00	0.000	0.567	87.6	35	56.6	86.6	1405	1	100.0	60
07/11/19	12:00 a	77.7	78.6	77.6	93	75.5	5.0	SSE	5.00	11.0	S	77.7	82.6	82.6	29.983	0.00	0.00	0.000	0.529	86.7	34	55.0	85.7	1405	1	100.0	60
THURSDAY				Temp	Hi	Low	Out	Dew	Wind	Wind	Wind	Hi	Hi	Wind	Heat	THW			Rain	Heat	Cool	In 	In	In 	In 	Wind	Wind	ISS 	Arc.
Date		Time	Out	Temp	Temp	Hum	Pt.	Speed	Dir	Run	Speed	Dir	Chill	Index	Index	Bar  	Rain	Rate	D-D 	D-D 	Temp	Hum	Dew	Heat	Samp	Tx 	Recept	Int.
07/11/19	1:00 a	77.2	77.7	77.2	95	75.7	5.0	SSE	5.00	12.0	SSE	77.2	81.9	81.9	29.978	0.00	0.00	0.000	0.508	85.5	35	54.7	84.8	1404	1	100.0	60
07/11/19	2:00 a	76.7	77.2	76.7	96	75.5	4.0	S	4.00	7.0	S	76.7	81.2	81.2	29.975	0.00	0.00	0.000	0.487	85.7	36	55.7	85.1	1405	1	100.0	60
07/11/19	3:00 a	76.3	76.7	76.3	96	75.1	4.0	S	4.00	5.0	S	76.3	80.5	80.5	29.959	0.00	0.00	0.000	0.471	84.0	34	52.6	83.1	1405	1	100.0	60
07/11/19	4:00 a	76.1	76.3	76.1	97	75.2	4.0	S	4.00	7.0	S	76.1	80.3	80.3	29.951	0.00	0.00	0.000	0.462	84.1	35	53.5	83.4	1405	1	100.0	60
07/11/19	5:00 a	76.0	76.1	75.9	98	75.4	4.0	SW	4.00	10.0	S	76.0	80.2	80.2	29.952	0.00	0.00	0.000	0.458	84.3	36	54.4	83.8	1405	1	100.0	60
07/11/19	6:00 a	75.8	76.0	75.8	98	75.2	4.0	SW	4.00	11.0	SW	75.8	79.9	79.9	29.954	0.00	0.00	0.000	0.450	84.0	35	53.4	83.3	1405	1	100.0	60
07/11/19	7:00 a	76.6	76.6	75.7	99	76.3	4.0	SW	4.00	12.0	SSE	76.6	81.3	81.3	29.955	0.00	0.00	0.000	0.483	83.4	36	53.6	82.6	1404	1	100.0	60
07/11/19	8:00 a	80.0	80.0	76.6	94	78.1	6.0	SW	6.00	15.0	SW	80.0	87.8	87.8	29.961	0.00	0.00	0.000	0.625	84.0	37	54.9	83.7	1405	1	100.0	60
07/11/19	9:00 a	83.7	83.7	80.0	89	80.1	6.0	SW	6.00	14.0	WSW	83.7	96.7	96.7	29.962	0.00	0.00	0.000	0.779	83.4	36	53.6	82.6	1405	1	100.0	60
07/11/19	10:00 a	86.7	86.8	83.8	81	80.2	6.0	SSW	6.00	17.0	SW	86.7	101.7	101.7	29.955	0.00	0.00	0.000	0.904	85.7	37	56.4	85.3	1405	1	100.0	60
07/11/19	11:00 a	87.8	88.1	86.6	77	79.7	6.0	SW	6.00	15.0	WSW	87.8	102.2	102.2	29.939	0.00	0.00	0.000	0.950	85.8	37	56.5	85.4	1405	1	100.0	60
07/11/19	12:00 p	90.3	90.4	87.7	71	79.6	6.0	SW	6.00	17.0	SW	90.3	107.5	107.5	29.921	0.00	0.00	0.000	1.054	87.3	34	55.5	86.2	1405	1	100.0	60
07/11/19	1:00 p	91.8	91.8	90.4	69	80.2	7.0	SW	7.00	21.0	SW	91.8	110.9	110.9	29.898	0.00	0.00	0.000	1.117	87.4	37	57.9	86.9	1405	1	100.0	60
07/11/19	2:00 p	93.3	93.3	91.8	63	78.8	7.0	S	7.00	20.0	SSE	93.3	111.0	111.0	29.869	0.00	0.00	0.000	1.179	88.4	39	60.3	88.6	1405	1	100.0	60
07/11/19	3:00 p	93.3	93.3	93.3	62	78.3	7.0	S	7.00	21.0	SW	93.3	110.2	110.2	29.841	0.00	0.00	0.000	1.179	88.9	35	57.7	88.2	1405	1	100.0	60
07/11/19	4:00 p	91.5	93.3	90.9	69	79.9	10.0	SSW	10.00	21.0	WSW	91.5	109.9	109.9	29.816	0.00	0.00	0.000	1.104	89.1	37	59.4	89.1	1405	1	100.0	60
07/11/19	5:00 p	92.6	92.6	91.5	68	80.5	7.0	SW	7.00	16.0	WSW	92.6	112.8	112.8	29.802	0.00	0.00	0.000	1.150	89.9	37	60.1	90.3	1405	1	100.0	60
07/11/19	6:00 p	92.4	92.9	92.4	66	79.4	7.0	SSW	7.00	21.0	S	92.4	110.6	110.6	29.793	0.00	0.00	0.000	1.142	91.3	34	59.0	91.4	1405	1	100.0	60
07/11/19	7:00 p	91.5	92.4	91.5	69	79.9	6.0	S	6.00	19.0	S	91.5	109.9	109.9	29.779	0.00	0.00	0.000	1.104	90.6	36	60.0	91.0	1405	1	100.0	60
07/11/19	8:00 p	89.0	91.6	89.0	71	78.4	7.0	S	7.00	19.0	SSE	89.0	102.9	102.9	29.786	0.00	0.00	0.000	1.000	88.1	34	56.2	86.7	1405	1	100.0	60
07/11/19	9:00 p	85.8	89.0	85.8	77	77.8	7.0	S	7.00	17.0	SSE	85.8	97.2	97.2	29.817	0.00	0.00	0.000	0.867	88.1	36	57.8	87.2	1404	1	100.0	60
07/11/19	10:00 p	75.9	85.8	75.9	92	73.4	10.0	NNW	10.00	33.0	WNW	74.0	79.6	77.7	29.868	0.47	3.10	0.000	0.454	88.2	35	57.1	87.1	1405	1	100.0	60
07/11/19	11:00 p	73.8	75.9	73.8	96	72.6	4.0	NNW	4.00	10.0	NW	73.8	76.9	76.9	29.872	0.06	0.50	0.000	0.367	86.7	36	56.6	86.2	1405	1	100.0	60
07/12/19	12:00 a	73.9	74.0	73.7	98	73.3	5.0	SSE	5.00	12.0	SE	73.9	77.3	77.3	29.831	0.13	11.08	0.000	0.371	85.3	33	52.9	84.1	1405	1	100.0	60
FRIDAY			Temp	Hi	Low	Out	Dew	Wind	Wind	Wind	Hi	Hi	Wind	Heat	THW			Rain	Heat	Cool	In 	In	In 	In 	Wind	Wind	ISS 	Arc.
Date		Time	Out	Temp	Temp	Hum	Pt.	Speed	Dir	Run	Speed	Dir	Chill	Index	Index	Bar  	Rain	Rate	D-D 	D-D 	Temp	Hum	Dew	Heat	Samp	Tx 	Recept	Int.
07/12/19	1:00 a	73.2	73.9	73.2	99	72.9	5.0	SW	5.00	12.0	SSW	73.2	76.6	76.6	29.830	0.03	0.10	0.000	0.342	85.3	35	54.5	84.5	1404	1	100.0	60
07/12/19	2:00 a	73.4	73.4	73.1	99	73.1	5.0	SSW	5.00	13.0	SSE	73.4	76.9	76.9	29.785	0.00	0.00	0.000	0.350	85.3	36	55.3	84.7	1405	1	100.0	60
07/12/19	3:00 a	73.3	73.4	73.3	100	73.3	5.0	SSW	5.00	16.0	SW	73.3	76.9	76.9	29.783	0.00	0.00	0.000	0.346	85.2	37	56.0	84.8	1405	1	100.0	60
07/12/19	4:00 a	73.5	73.5	73.3	100	73.5	5.0	SW	5.00	15.0	SW	73.5	77.1	77.1	29.804	0.00	0.00	0.000	0.354	83.4	36	53.6	82.6	1405	1	100.0	60
07/12/19	5:00 a	73.6	73.7	73.4	100	73.6	5.0	SW	5.00	13.0	SW	73.6	77.2	77.2	29.822	0.01	0.00	0.000	0.358	83.8	37	54.7	83.4	1405	1	100.0	60
07/12/19	6:00 a	74.0	74.0	73.6	100	74.0	6.0	SW	6.00	14.0	WSW	74.0	77.6	77.6	29.816	0.00	0.00	0.000	0.375	83.7	38	55.4	83.4	1405	1	100.0	60
07/12/19	7:00 a	74.4	74.4	74.0	100	74.4	6.0	SW	6.00	16.0	SW	74.4	78.1	78.1	29.830	0.00	0.00	0.000	0.392	82.7	41	56.6	82.4	1405	1	100.0	60
07/12/19	8:00 a	74.6	74.6	74.3	100	74.6	7.0	SW	7.00	20.0	SW	74.6	78.3	78.3	29.844	0.00	0.00	0.000	0.400	83.4	44	59.2	84.0	1405	1	100.0	60
07/12/19	9:00 a	75.5	75.5	74.6	100	75.5	7.0	SW	7.00	19.0	SSW	75.5	79.6	79.6	29.852	0.00	0.00	0.000	0.438	83.5	42	58.0	83.8	1404	1	100.0	60
07/12/19	10:00 a	76.1	76.1	75.5	100	76.1	11.0	SSW	11.00	23.0	SW	73.8	80.5	78.2	29.841	0.00	0.00	0.000	0.462	84.5	41	58.2	84.9	1405	1	100.0	60
07/12/19	11:00 a	77.9	77.9	76.1	97	77.0	10.0	SW	10.00	22.0	SSW	76.1	83.6	81.8	29.841	0.00	0.00	0.000	0.538	85.8	40	58.7	86.0	1405	1	100.0	60
07/12/19	12:00 p	82.3	82.3	77.9	89	78.7	7.0	W	7.00	20.0	SSW	82.3	92.6	92.6	29.835	0.00	0.00	0.000	0.721	84.9	38	56.5	84.7	1405	1	100.0	60
07/12/19	1:00 p	86.2	86.2	82.3	79	78.9	7.0	W	7.00	17.0	SW	86.2	99.1	99.1	29.835	0.00	0.00	0.000	0.883	87.7	42	61.8	88.5	1405	1	100.0	60
07/12/19	2:00 p	87.7	87.7	86.2	77	79.6	6.0	W	6.00	17.0	NNW	87.7	102.0	102.0	29.829	0.00	0.00	0.000	0.946	87.4	38	58.7	87.2	1405	1	100.0	60
07/12/19	3:00 p	88.7	88.7	87.8	75	79.8	6.0	W	6.00	15.0	NW	88.7	104.3	104.3	29.827	0.00	0.00	0.000	0.987	89.9	37	60.1	90.3	1405	1	100.0	60
07/12/19	4:00 p	91.3	91.3	88.7	71	80.6	5.0	WSW	5.00	14.0	W	91.3	110.9	110.9	29.818	0.00	0.00	0.000	1.096	88.0	37	58.5	87.3	1405	1	100.0	60
07/12/19	5:00 p	91.3	91.3	91.3	66	78.3	6.0	WSW	6.00	14.0	W	91.3	107.2	107.2	29.809	0.00	0.00	0.000	1.096	91.5	38	62.3	93.0	1405	1	100.0	60
07/12/19	6:00 p	91.3	91.3	91.3	68	79.3	5.0	WNW	5.00	13.0	W	91.3	108.6	108.6	29.805	0.00	0.00	0.000	1.096	88.9	36	58.5	88.5	1405	1	100.0	60
07/12/19	7:00 p	91.3	91.3	91.3	69	79.7	6.0	SSW	6.00	15.0	WSW	91.3	109.3	109.3	29.816	0.00	0.00	0.000	1.096	91.2	37	61.3	92.2	1405	1	100.0	60
07/12/19	8:00 p	89.5	91.3	89.5	75	80.5	5.0	SW	5.00	16.0	WSW	89.5	107.5	107.5	29.816	0.00	0.00	0.000	1.021	88.0	36	57.7	87.1	1405	1	100.0	60
07/12/19	9:00 p	86.6	89.4	86.6	80	79.7	5.0	SW	5.00	12.0	SW	86.6	100.8	100.8	29.847	0.00	0.00	0.000	0.900	89.7	37	60.0	90.0	1405	1	100.0	60
07/12/19	10:00 p	84.4	86.5	84.4	85	79.4	4.0	SW	4.00	10.0	WSW	84.4	97.0	97.0	29.866	0.00	0.00	0.000	0.808	86.7	36	56.6	86.2	1405	1	100.0	60
07/12/19	11:00 p	83.2	84.4	83.2	88	79.3	5.0	SW	5.00	11.0	SW	83.2	94.7	94.7	29.877	0.00	0.00	0.000	0.758	87.6	36	57.3	86.8	1405	1	100.0	60
07/13/19	12:00 a	81.8	83.2	81.8	89	78.2	5.0	SW	5.00	13.0	SSW	81.8	91.2	91.2	29.871	0.00	0.00	0.000	0.700	86.5	36	56.4	86.0	1404	1	100.0	60
SATURDAY		Temp	Hi	Low	Out	Dew	Wind	Wind	Wind	Hi	Hi	Wind	Heat	THW			Rain	Heat	Cool	In 	In	In 	In 	Wind	Wind	ISS 	Arc.
Date		Time	Out	Temp	Temp	Hum	Pt.	Speed	Dir	Run	Speed	Dir	Chill	Index	Index	Bar  	Rain	Rate	D-D 	D-D 	Temp	Hum	Dew	Heat	Samp	Tx 	Recept	Int.
07/13/19	1:00 a	80.8	81.8	80.8	90	77.6	4.0	SSW	4.00	12.0	WNW	80.8	88.7	88.7	29.871	0.00	0.00	0.000	0.658	87.1	36	56.9	86.5	1404	1	100.0	60
07/13/19	2:00 a	79.5	80.8	79.5	92	77.0	5.0	SW	5.00	11.0	SW	79.5	86.2	86.2	29.866	0.00	0.00	0.000	0.604	85.3	36	55.3	84.7	1404	1	100.0	60
07/13/19	3:00 a	78.7	79.5	78.7	93	76.5	4.0	SW	4.00	12.0	WNW	78.7	84.7	84.7	29.873	0.00	0.00	0.000	0.571	85.9	37	56.6	85.6	1405	1	100.0	60
07/13/19	4:00 a	78.7	78.7	78.6	95	77.1	4.0	NE	4.00	13.0	NNW	78.7	85.1	85.1	29.885	0.00	0.00	0.000	0.571	83.9	36	54.1	83.3	1405	1	100.0	60
07/13/19	5:00 a	78.2	78.7	78.2	94	76.3	0.0	NW	0.00	5.0	NNW	78.2	83.7	83.7	29.890	0.00	0.00	0.000	0.550	84.7	37	55.5	84.3	1405	1	100.0	60
07/13/19	6:00 a	77.2	78.2	77.2	95	75.7	0.0	W	0.00	6.0	W	77.2	81.9	81.9	29.902	0.00	0.00	0.000	0.508	84.8	37	55.6	84.4	1405	1	100.0	60
07/13/19	7:00 a	77.6	77.6	76.8	97	76.7	0.0	W	0.00	5.0	W	77.6	83.0	83.0	29.923	0.00	0.00	0.000	0.525	83.5	36	53.7	82.7	1405	1	100.0	60
07/13/19	8:00 a	81.2	81.2	77.6	94	79.3	7.0	W	7.00	11.0	W	81.2	91.0	91.0	29.934	0.00	0.00	0.000	0.675	84.5	37	55.4	84.1	1405	1	100.0	60
07/13/19	9:00 a	83.9	83.9	81.2	83	78.2	7.0	WNW	7.00	15.0	ENE	83.9	95.2	95.2	29.953	0.00	0.00	0.000	0.788	82.8	36	53.1	81.7	1405	1	100.0	60
07/13/19	10:00 a	87.0	87.0	83.9	76	78.5	6.0	NNW	6.00	15.0	NE	87.0	100.1	100.1	29.968	0.00	0.00	0.000	0.917	85.2	37	56.0	84.8	1405	1	100.0	60
07/13/19	11:00 a	86.5	87.5	86.5	77	78.4	7.0	ENE	7.00	15.0	NE	86.5	99.2	99.2	29.982	0.00	0.00	0.000	0.896	85.3	37	56.1	84.9	1405	1	100.0	60
07/13/19	12:00 p	87.2	87.2	86.4	64	73.5	7.0	NE	7.00	16.0	NE	87.2	95.4	95.4	29.982	0.00	0.00	0.000	0.925	88.8	39	60.7	89.3	1405	1	100.0	60
07/13/19	1:00 p	88.4	88.4	87.2	63	74.2	10.0	NE	10.00	17.0	NE	88.1	97.1	96.8	29.976	0.00	0.00	0.000	0.975	87.7	37	58.2	87.1	1404	1	100.0	60
07/13/19	2:00 p	89.4	89.4	88.4	60	73.7	6.0	ENE	6.00	17.0	ENE	89.4	98.3	98.3	29.957	0.00	0.00	0.000	1.017	90.5	36	59.9	90.8	1405	1	100.0	60
07/13/19	3:00 p	90.0	90.1	89.4	56	72.2	7.0	ENE	7.00	17.0	ENE	90.0	97.9	97.9	29.953	0.00	0.00	0.000	1.042	90.0	36	59.5	90.2	1405	1	100.0	60
07/13/19	4:00 p	88.8	90.0	88.8	63	74.6	6.0	ENE	6.00	15.0	SSE	88.8	98.2	98.2	29.945	0.00	0.00	0.000	0.992	92.2	34	59.8	92.6	1405	1	100.0	60
07/13/19	5:00 p	90.1	90.1	88.6	61	74.8	6.0	ENE	6.00	15.0	SSE	90.1	100.7	100.7	29.941	0.00	0.00	0.000	1.046	89.9	33	56.9	89.4	1405	1	100.0	60
07/13/19	6:00 p	90.1	90.1	90.1	57	72.8	7.0	SSE	7.00	15.0	SSE	90.1	98.6	98.6	29.951	0.00	0.00	0.000	1.046	90.1	34	58.0	89.8	1405	1	100.0	60
07/13/19	7:00 p	90.1	90.1	90.1	59	73.8	6.0	SSE	6.00	15.0	SSE	90.1	99.6	99.6	29.954	0.00	0.00	0.000	1.046	90.4	32	56.5	89.9	1405	1	100.0	60
07/13/19	8:00 p	89.4	89.4	89.4	63	75.1	6.0	SSE	6.00	14.0	SSE	89.4	99.8	99.8	29.963	0.00	0.00	0.000	1.017	89.3	34	57.3	88.5	1405	1	100.0	60
07/13/19	9:00 p	85.3	89.4	85.3	70	74.4	4.0	S	4.00	7.0	SSE	85.3	93.6	93.6	29.964	0.00	0.00	0.000	0.846	88.4	32	54.8	86.7	1405	1	100.0	60
07/13/19	10:00 p	82.0	85.3	82.0	78	74.5	0.0	ESE	0.00	5.0	ESE	82.0	88.3	88.3	29.966	0.00	0.00	0.000	0.708	88.0	33	55.3	86.4	1405	1	100.0	60
07/13/19	11:00 p	79.8	82.0	79.8	84	74.5	0.0	ESE	0.00	5.0	ESE	79.8	85.0	85.0	29.972	0.00	0.00	0.000	0.617	86.0	32	52.7	84.7	1405	1	100.0	60
07/14/19	12:00 a	78.1	79.8	78.1	89	74.6	0.0	ESE	0.00	6.0	ESE	78.1	82.8	82.8	29.975	0.00	0.00	0.000	0.546	84.9	33	52.6	83.7	1405	1	100.0	60
SUNDAY			Temp	Hi	Low	Out	Dew	Wind	Wind	Wind	Hi	Hi	Wind	Heat	THW			Rain	Heat	Cool	In 	In	In 	In 	Wind	Wind	ISS 	Arc.
Date		Time	Out	Temp	Temp	Hum	Pt.	Speed	Dir	Run	Speed	Dir	Chill	Index	Index	Bar  	Rain	Rate	D-D 	D-D 	Temp	Hum	Dew	Heat	Samp	Tx 	Recept	Int.
07/14/19	1:00 a	77.1	78.1	77.1	93	74.9	4.0	SE	4.00	10.0	S	77.1	81.5	81.5	29.974	0.00	0.00	0.000	0.504	85.3	33	52.9	84.1	1403	1	100.0	60
07/14/19	2:00 a	76.3	77.1	76.3	94	74.4	4.0	S	4.00	7.0	S	76.3	80.4	80.4	29.973	0.00	0.00	0.000	0.471	83.7	34	52.3	82.7	1405	1	100.0	60
07/14/19	3:00 a	75.9	76.3	75.9	96	74.7	4.0	SSW	4.00	7.0	SSW	75.9	79.9	79.9	29.970	0.00	0.00	0.000	0.454	84.2	34	52.8	83.3	1405	1	100.0	60
07/14/19	4:00 a	75.2	75.9	75.2	96	74.0	0.0	SW	0.00	5.0	SW	75.2	79.0	79.0	29.965	0.00	0.00	0.000	0.425	84.3	35	53.7	83.6	1405	1	100.0	60
07/14/19	5:00 a	74.5	75.2	74.4	96	73.3	0.0	SW	0.00	5.0	SW	74.5	77.9	77.9	29.963	0.00	0.00	0.000	0.396	84.2	35	53.6	83.5	1405	1	100.0	60
07/14/19	6:00 a	73.8	74.5	73.8	97	72.9	0.0	SW	0.00	5.0	SW	73.8	77.0	77.0	29.974	0.00	0.00	0.000	0.367	84.1	37	55.0	83.8	1405	1	100.0	60
07/14/19	7:00 a	75.0	75.0	73.6	99	74.7	0.0	SW	0.00	5.0	SW	75.0	78.8	78.8	29.991	0.00	0.00	0.000	0.417	83.8	39	56.2	83.8	1405	1	100.0	60
07/14/19	8:00 a	79.4	79.4	75.0	93	77.2	4.0	SW	4.00	7.0	SW	79.4	86.2	86.2	30.002	0.00	0.00	0.000	0.600	83.7	43	58.8	84.3	1405	1	100.0	60
07/14/19	9:00 a	84.0	84.0	79.4	86	79.4	4.0	SW	4.00	7.0	W	84.0	96.5	96.5	30.015	0.00	0.00	0.000	0.792	82.8	43	58.0	82.9	1405	1	100.0	60
07/14/19	10:00 a	89.5	89.5	84.0	74	80.1	5.0	WNW	5.00	11.0	WNW	89.5	106.8	106.8	30.010	0.00	0.00	0.000	1.021	86.6	43	61.4	87.6	1405	1	100.0	60
07/14/19	11:00 a	93.4	93.4	89.5	57	75.9	5.0	WNW	5.00	12.0	WNW	93.4	106.9	106.9	30.016	0.00	0.00	0.000	1.183	87.0	43	61.8	88.1	1405	1	100.0	60
07/14/19	12:00 p	94.3	94.4	93.4	58	77.2	5.0	SW	5.00	13.0	SW	94.3	110.2	110.2	30.011	0.00	0.00	0.000	1.221	90.1	39	61.8	91.1	1405	1	100.0	60
07/14/19	1:00 p	95.0	95.0	94.3	57	77.4	5.0	SW	5.00	14.0	SW	95.0	111.5	111.5	30.001	0.00	0.00	0.000	1.250	88.9	37	59.3	88.8	1405	1	100.0	60
07/14/19	2:00 p	94.8	95.0	94.7	58	77.7	6.0	WSW	6.00	14.0	NNW	94.8	111.7	111.7	29.994	0.00	0.00	0.000	1.242	92.1	37	62.1	93.5	1405	1	100.0	60
07/14/19	3:00 p	95.0	95.0	94.6	55	76.3	6.0	WSW	6.00	15.0	WNW	95.0	110.0	110.0	29.979	0.00	0.00	0.000	1.250	90.2	35	58.8	90.2	1405	1	100.0	60
07/14/19	4:00 p	95.2	95.2	94.5	54	75.9	6.0	WNW	6.00	17.0	NNW	95.2	109.7	109.7	29.968	0.00	0.00	0.000	1.258	93.2	36	62.3	94.8	1405	1	100.0	60
07/14/19	5:00 p	95.2	95.2	95.2	52	74.8	6.0	WNW	6.00	15.0	WNW	95.2	107.9	107.9	29.962	0.00	0.00	0.000	1.258	91.5	34	59.2	91.7	1404	1	100.0	60
07/14/19	6:00 p	95.2	95.2	95.2	52	74.8	7.0	NW	7.00	15.0	W	95.2	107.9	107.9	29.958	0.00	0.00	0.000	1.258	93.8	34	61.2	94.8	1405	1	100.0	60
07/14/19	7:00 p	95.0	95.2	95.0	52	74.6	6.0	NNW	6.00	14.0	NNW	95.0	107.4	107.4	29.963	0.00	0.00	0.000	1.250	91.4	33	58.3	91.3	1405	1	100.0	60
07/14/19	8:00 p	93.9	95.0	93.9	56	75.8	4.0	N	4.00	10.0	NNW	93.9	107.6	107.6	29.969	0.00	0.00	0.000	1.204	89.5	32	55.7	88.4	1405	1	100.0	60
07/14/19	9:00 p	90.0	93.9	90.0	66	77.1	0.0	N	0.00	5.0	N	90.0	103.4	103.4	29.981	0.00	0.00	0.000	1.042	90.7	33	57.6	90.4	1405	1	100.0	60
07/14/19	10:00 p	86.4	90.0	86.4	74	77.1	4.0	NE	4.00	6.0	NE	86.4	97.7	97.7	30.000	0.00	0.00	0.000	0.892	87.6	33	54.9	86.1	1405	1	100.0	60
07/14/19	11:00 p	84.0	86.4	84.0	77	76.0	0.0	SE	0.00	5.0	SE	84.0	93.4	93.4	30.000	0.00	0.00	0.000	0.792	88.3	32	54.7	86.6	1405	1	100.0	60
07/15/19	12:00 a	82.1	84.0	82.1	82	76.1	0.0	SE	0.00	6.0	SE	82.1	89.8	89.8	30.006	0.00	0.00	0.000	0.712	86.8	33	54.2	85.6	1405	1	100.0	60
MONDAY			Temp	Hi	Low	Out	Dew	Wind	Wind	Wind	Hi	Hi	Wind	Heat	THW			Rain	Heat	Cool	In 	In	In 	In 	Wind	Wind	ISS 	Arc.
Date		Time	Out	Temp	Temp	Hum	Pt.	Speed	Dir	Run	Speed	Dir	Chill	Index	Index	Bar  	Rain	Rate	D-D 	D-D 	Temp	Hum	Dew	Heat	Samp	Tx 	Recept	Int.
07/15/19	1:00 a	80.3	82.1	80.3	87	76.1	0.0	SE	0.00	5.0	SE	80.3	86.8	86.8	30.006	0.00	0.00	0.000	0.638	86.9	33	54.3	85.7	1404	1	100.0	60
07/15/19	2:00 a	78.8	80.3	78.8	90	75.6	0.0	SE	0.00	5.0	SE	78.8	84.3	84.3	30.001	0.00	0.00	0.000	0.575	86.6	34	54.9	85.6	1405	1	100.0	60
07/15/19	3:00 a	77.9	78.8	77.9	93	75.7	0.0	SE	0.00	4.0	SE	77.9	83.0	83.0	29.992	0.00	0.00	0.000	0.538	86.6	35	55.7	85.8	1405	1	100.0	60
07/15/19	4:00 a	77.4	77.9	77.4	94	75.5	4.0	SE	4.00	6.0	SW	77.4	82.2	82.2	29.992	0.00	0.00	0.000	0.517	84.7	34	53.2	83.7	1404	1	100.0	60
07/15/19	5:00 a	76.9	77.4	76.9	95	75.4	0.0	SW	0.00	6.0	SW	76.9	81.4	81.4	30.001	0.00	0.00	0.000	0.496	85.2	35	54.5	84.4	1405	1	100.0	60
07/15/19	6:00 a	76.3	76.9	76.2	90	73.1	4.0	SW	4.00	13.0	ENE	76.3	80.0	80.0	30.016	0.00	0.00	0.000	0.471	84.6	34	53.1	83.6	1405	1	100.0	60
07/15/19	7:00 a	81.5	81.5	76.3	74	72.4	6.0	NE	6.00	15.0	NE	81.5	86.2	86.2	30.036	0.00	0.00	0.000	0.688	84.4	35	53.8	83.7	1405	1	100.0	60
07/15/19	8:00 a	84.2	84.2	81.4	72	74.2	6.0	NE	6.00	15.0	NW	84.2	92.0	92.0	30.049	0.00	0.00	0.000	0.800	85.2	35	54.5	84.4	1405	1	100.0	60
07/15/19	9:00 a	86.3	86.3	84.2	69	74.9	7.0	ENE	7.00	16.0	NNW	86.3	95.6	95.6	30.058	0.00	0.00	0.000	0.888	84.6	35	53.9	83.8	1405	1	100.0	60
07/15/19	10:00 a	88.2	88.2	86.3	58	71.6	10.0	NE	10.00	19.0	NE	87.8	94.7	94.3	30.061	0.00	0.00	0.000	0.967	86.3	35	55.4	85.6	1405	1	100.0	60
07/15/19	11:00 a	89.3	89.3	88.2	58	72.6	10.0	NNW	10.00	16.0	ENE	89.2	97.2	97.1	30.068	0.00	0.00	0.000	1.013	87.5	37	58.0	87.0	1405	1	100.0	60
07/15/19	12:00 p	89.8	89.8	89.3	57	72.5	7.0	ENE	7.00	16.0	NE	89.8	97.9	97.9	30.059	0.00	0.00	0.000	1.033	88.2	33	55.5	86.6	1405	1	100.0	60
07/15/19	1:00 p	90.4	90.4	89.8	53	70.9	10.0	NNW	10.00	18.0	WNW	90.4	97.4	97.4	30.060	0.00	0.00	0.000	1.058	90.6	38	61.5	91.6	1405	1	100.0	60
07/15/19	2:00 p	91.3	91.3	90.4	47	68.2	7.0	NNW	7.00	16.0	N	91.3	96.5	96.5	30.052	0.00	0.00	0.000	1.096	90.2	33	57.2	89.8	1405	1	100.0	60
07/15/19	3:00 p	92.0	92.0	91.3	45	67.6	7.0	ENE	7.00	17.0	NNW	92.0	96.9	96.9	30.042	0.00	0.00	0.000	1.125	92.9	37	62.8	94.8	1405	1	100.0	60
07/15/19	4:00 p	92.0	92.0	92.0	42	65.6	7.0	ENE	7.00	18.0	N	92.0	95.5	95.5	30.032	0.00	0.00	0.000	1.125	92.3	31	57.3	92.0	1405	1	100.0	60
07/15/19	5:00 p	92.0	92.0	92.0	39	63.5	7.0	NW	7.00	15.0	ENE	92.0	94.1	94.1	30.017	0.00	0.00	0.000	1.125	94.0	36	63.0	95.9	1405	1	100.0	60
07/15/19	6:00 p	92.0	92.0	92.0	39	63.5	6.0	WNW	6.00	14.0	NW	92.0	94.1	94.1	30.007	0.00	0.00	0.000	1.125	93.3	30	57.2	93.1	1405	1	100.0	60
07/15/19	7:00 p	90.0	90.0	90.0	43	64.5	6.0	NNW	6.00	14.0	NE	90.0	92.5	92.5	30.014	0.00	0.00	0.000	1.042	93.8	34	61.2	94.8	1404	1	100.0	60
07/15/19	8:00 p	91.7	93.6	91.7	49	69.8	5.0	N	5.00	13.0	NW	91.7	98.1	98.1	30.029	0.00	0.00	0.000	1.112	90.8	31	56.0	90.2	1405	1	100.0	60
07/15/19	9:00 p	87.8	91.7	87.8	58	71.2	0.0	N	0.00	5.0	N	87.8	93.9	93.9	30.044	0.00	0.00	0.000	0.950	91.5	31	56.6	91.0	1405	1	100.0	60
07/15/19	10:00 p	84.5	87.8	84.5	72	74.5	5.0	SSE	5.00	12.0	S	84.5	92.6	92.6	30.058	0.00	0.00	0.000	0.813	88.8	32	55.1	87.2	1405	1	100.0	60
07/15/19	11:00 p	82.1	84.4	82.1	79	74.9	5.0	SSE	5.00	11.0	S	82.1	88.9	88.9	30.060	0.00	0.00	0.000	0.712	88.2	31	53.7	86.2	1405	1	100.0	60
07/16/19	12:00 a	80.5	82.1	80.5	82	74.5	5.0	SSE	5.00	7.0	SSE	80.5	86.0	86.0	30.067	0.00	0.00	0.000	0.646	85.3	31	51.2	83.7	1405	1	100.0	60
TUESDAY			Temp	Hi	Low	Out	Dew	Wind	Wind	Wind	Hi	Hi	Wind	Heat	THW			Rain	Heat	Cool	In 	In	In 	In 	Wind	Wind	ISS 	Arc.
Date		Time	Out	Temp	Temp	Hum	Pt.	Speed	Dir	Run	Speed	Dir	Chill	Index	Index	Bar  	Rain	Rate	D-D 	D-D 	Temp	Hum	Dew	Heat	Samp	Tx 	Recept	Int.
07/16/19	1:00 a	79.1	80.5	79.1	85	74.2	4.0	SSE	4.00	11.0	SSE	79.1	83.9	83.9	30.064	0.00	0.00	0.000	0.587	85.8	32	52.5	84.5	1404	1	100.0	60
07/16/19	2:00 a	78.2	79.1	78.1	86	73.7	4.0	SSE	4.00	12.0	SSE	78.2	82.6	82.6	30.054	0.00	0.00	0.000	0.550	86.4	33	53.9	85.3	1405	1	100.0	60
07/16/19	3:00 a	77.4	78.2	77.4	88	73.6	4.0	SSE	4.00	11.0	SSE	77.4	81.5	81.5	30.042	0.00	0.00	0.000	0.517	86.6	33	54.1	85.4	1405	1	100.0	60
07/16/19	4:00 a	76.7	77.4	76.7	89	73.2	4.0	SSE	4.00	10.0	SSE	76.7	80.5	80.5	30.034	0.00	0.00	0.000	0.487	85.0	32	51.8	83.6	1405	1	100.0	60
07/16/19	5:00 a	76.3	76.7	76.2	91	73.5	0.0	SSE	0.00	5.0	SSE	76.3	80.1	80.1	30.048	0.00	0.00	0.000	0.471	84.9	33	52.6	83.7	1405	1	100.0	60
07/16/19	6:00 a	75.8	76.3	75.8	92	73.3	0.0	---	0.00	0.0	---	75.8	79.5	79.5	30.067	0.00	0.00	0.000	0.450	85.2	34	53.7	84.2	1405	1	100.0	60
07/16/19	7:00 a	77.0	77.0	75.7	95	75.5	0.0	SE	0.00	5.0	SSE	77.0	81.5	81.5	30.082	0.00	0.00	0.000	0.500	83.1	33	51.0	81.6	1404	1	100.0	60
07/16/19	8:00 a	80.5	80.5	77.0	91	77.6	4.0	SSE	4.00	10.0	S	80.5	88.3	88.3	30.086	0.00	0.00	0.000	0.646	84.4	34	53.0	83.5	1406	1	100.0	60
07/16/19	9:00 a	84.7	84.7	80.5	86	80.0	5.0	S	5.00	12.0	S	84.7	98.2	98.2	30.080	0.00	0.00	0.000	0.821	84.1	33	51.9	83.0	1404	1	100.0	60
07/16/19	10:00 a	89.6	89.6	84.7	76	81.0	5.0	SSW	5.00	11.0	SW	89.6	108.6	108.6	30.081	0.00	0.00	0.000	1.025	86.7	36	56.6	86.2	1406	1	100.0	60
07/16/19	11:00 a	94.3	94.3	89.6	67	81.7	5.0	SSW	5.00	11.0	S	94.3	117.8	117.8	30.077	0.00	0.00	0.000	1.221	87.0	33	54.4	85.8	1404	1	100.0	60
07/16/19	12:00 p	94.8	95.1	94.3	57	77.2	5.0	WSW	5.00	12.0	WSW	94.8	110.9	110.9	30.080	0.00	0.00	0.000	1.242	89.7	33	56.8	89.0	1405	1	100.0	60
07/16/19	1:00 p	95.1	95.2	94.8	62	80.0	5.0	SW	5.00	20.0	S	95.1	116.0	116.0	30.071	0.00	0.00	0.000	1.254	89.8	34	57.7	89.4	1405	1	100.0	60
07/16/19	2:00 p	94.3	95.3	94.3	52	74.0	6.0	SW	6.00	24.0	WNW	94.3	105.7	105.7	30.059	0.00	0.00	0.000	1.221	91.6	30	55.8	90.9	1405	1	100.0	60
07/16/19	3:00 p	80.6	94.3	80.5	92	78.1	5.0	N	5.00	24.0	WNW	80.6	88.8	88.8	30.051	0.08	0.47	0.000	0.650	90.9	33	57.8	90.7	1405	1	100.0	60
07/16/19	4:00 p	84.2	84.2	80.5	86	79.6	10.0	SSE	10.00	20.0	S	83.1	97.0	95.9	30.060	0.00	0.00	0.000	0.800	91.6	30	55.8	90.9	1405	1	100.0	60
07/16/19	5:00 p	87.3	87.5	84.2	73	77.6	10.0	S	10.00	20.0	SSE	86.8	99.3	98.8	30.060	0.00	0.00	0.000	0.929	91.8	35	60.3	92.3	1405	1	100.0	60
07/16/19	6:00 p	82.7	87.3	82.7	81	76.3	7.0	SW	7.00	16.0	SW	82.7	91.1	91.1	30.030	0.00	0.00	0.000	0.737	91.5	30	55.7	90.8	1405	1	100.0	60
07/16/19	7:00 p	81.3	82.7	81.3	81	74.9	6.0	SSW	6.00	16.0	S	81.3	87.5	87.5	30.042	0.00	0.00	0.000	0.679	90.7	35	59.3	90.8	1405	1	100.0	60
07/16/19	8:00 p	80.2	81.3	80.2	83	74.6	5.0	SW	5.00	12.0	SSW	80.2	85.6	85.6	30.047	0.00	0.00	0.000	0.633	88.8	33	56.0	87.5	1405	1	100.0	60
07/16/19	9:00 p	79.1	80.2	79.1	86	74.5	5.0	SSW	5.00	14.0	W	79.1	84.1	84.1	30.049	0.00	0.00	0.000	0.587	88.2	34	56.3	86.9	1405	1	100.0	60
07/16/19	10:00 p	78.2	79.1	78.2	88	74.4	4.0	SW	4.00	11.0	SW	78.2	82.9	82.9	30.067	0.00	0.00	0.000	0.550	86.5	33	54.0	85.4	1404	1	100.0	60
07/16/19	11:00 p	77.8	78.2	77.8	89	74.3	4.0	S	4.00	7.0	SSE	77.8	82.3	82.3	30.053	0.00	0.00	0.000	0.533	86.7	34	55.0	85.7	1405	1	100.0	60
07/17/19	12:00 a	77.4	77.8	77.4	90	74.2	4.0	S	4.00	6.0	S	77.4	81.7	81.7	30.057	0.00	0.00	0.000	0.517	86.0	33	53.5	84.9	1405	1	100.0	60
WEDNESDAY		Temp	Hi	Low	Out	Dew	Wind	Wind	Wind	Hi	Hi	Wind	Heat	THW			Rain	Heat	Cool	In 	In	In 	In 	Wind	Wind	ISS 	Arc.
Date		Time	Out	Temp	Temp	Hum	Pt.	Speed	Dir	Run	Speed	Dir	Chill	Index	Index	Bar  	Rain	Rate	D-D 	D-D 	Temp	Hum	Dew	Heat	Samp	Tx 	Recept	Int.
07/17/19	1:00 a	77.6	77.6	77.4	94	75.7	4.0	S	4.00	16.0	S	77.6	82.5	82.5	30.048	0.00	0.00	0.000	0.525	85.3	34	53.8	84.3	1403	1	100.0	60
07/17/19	2:00 a	78.0	78.0	77.6	92	75.5	5.0	SSW	5.00	13.0	S	78.0	83.0	83.0	30.039	0.00	0.00	0.000	0.542	85.7	35	54.9	85.0	1405	1	100.0	60
07/17/19	3:00 a	77.7	78.1	77.7	91	74.9	5.0	SW	5.00	13.0	SSW	77.7	82.4	82.4	30.030	0.00	0.00	0.000	0.529	83.9	35	53.3	83.2	1405	1	100.0	60
07/17/19	4:00 a	77.9	77.9	77.6	92	75.4	5.0	SW	5.00	15.0	WSW	77.9	82.9	82.9	30.018	0.00	0.00	0.000	0.538	84.7	36	54.8	84.1	1405	1	100.0	60
07/17/19	5:00 a	78.4	78.4	77.9	92	75.9	5.0	SW	5.00	12.0	SSW	78.4	83.9	83.9	30.020	0.00	0.00	0.000	0.558	84.0	35	53.4	83.3	1405	1	100.0	60
07/17/19	6:00 a	78.2	78.5	78.2	93	76.0	5.0	SW	5.00	12.0	SW	78.2	83.6	83.6	30.025	0.00	0.00	0.000	0.550	84.2	36	54.4	83.7	1405	1	100.0	60
07/17/19	7:00 a	78.3	78.3	78.1	94	76.4	5.0	SSW	5.00	14.0	SW	78.3	84.0	84.0	30.027	0.00	0.00	0.000	0.554	84.4	36	54.5	83.9	1405	1	100.0	60

			Temp	Hi	Low	Out	Dew	Wind	Wind	Wind	Hi	Hi	Wind	Heat	THW			Rain	Heat	Cool	In 	In	In 	In 	Wind	Wind	ISS 	Arc.
Date		Time	Out	Temp	Temp	Hum	Pt.	Speed	Dir	Run	Speed	Dir	Chill	Index	Index	Bar  	Rain	Rate	D-D 	D-D 	Temp	Hum	Dew	Heat	Samp	Tx 	Recept	Int.
-----------------------------------------------------------------------------------------------------------------------------------------------------------------------------------